<?xml version="1.0" encoding="UTF-8" standalone="no" ?>
<gpx xmlns="http://www.topografix.com/GPX/1/1" xmlns:xsi="http://www.w3.org/2001/XMLSchema-instance" xsi:schemaLocation="http://www.topografix.com/GPX/1/1 http://www.topografix.com/GPX/1/1/gpx.xsd" version="1.1" creator="VisuGPX - https://www.visugpx.com">
  <metadata>
    <name>Trace parcours de la pierre du 22 février 2018</name>
    <desc><![CDATA[Randonnée à la demi-journée effectuée par 19 membres du SCLapalud.]]></desc>
  </metadata>
  <trk>
    <name><![CDATA[2018-02-22 16:31:23]]></name>
    <trkseg>
      <trkpt lat="44.33125" lon="4.79116">
        <ele>198.65</ele>
        <time>2018-02-22T12:26:43Z</time>
      </trkpt>
      <trkpt lat="44.33125" lon="4.79116">
        <ele>198.65</ele>
        <time>2018-02-22T12:26:44Z</time>
      </trkpt>
      <trkpt lat="44.33123" lon="4.79116">
        <ele>194.8</ele>
        <time>2018-02-22T12:26:46Z</time>
      </trkpt>
      <trkpt lat="44.33122" lon="4.79116">
        <ele>190.96</ele>
        <time>2018-02-22T12:26:50Z</time>
      </trkpt>
      <trkpt lat="44.33122" lon="4.79115">
        <ele>188.08</ele>
        <time>2018-02-22T12:26:54Z</time>
      </trkpt>
      <trkpt lat="44.33122" lon="4.79115">
        <ele>184.23</ele>
        <time>2018-02-22T12:26:59Z</time>
      </trkpt>
      <trkpt lat="44.3312" lon="4.79115">
        <ele>180.87</ele>
        <time>2018-02-22T12:27:05Z</time>
      </trkpt>
      <trkpt lat="44.3312" lon="4.79115">
        <ele>177.5</ele>
        <time>2018-02-22T12:27:13Z</time>
      </trkpt>
      <trkpt lat="44.33119" lon="4.79114">
        <ele>174.62</ele>
        <time>2018-02-22T12:27:23Z</time>
      </trkpt>
      <trkpt lat="44.3312" lon="4.79112">
        <ele>171.25</ele>
        <time>2018-02-22T12:27:40Z</time>
      </trkpt>
      <trkpt lat="44.3312" lon="4.79112">
        <ele>171.25</ele>
        <time>2018-02-22T12:27:41Z</time>
      </trkpt>
      <trkpt lat="44.33121" lon="4.79112">
        <ele>169.33</ele>
        <time>2018-02-22T12:27:44Z</time>
      </trkpt>
      <trkpt lat="44.3312" lon="4.79111">
        <ele>167.89</ele>
        <time>2018-02-22T12:28:04Z</time>
      </trkpt>
      <trkpt lat="44.3312" lon="4.79111">
        <ele>166.45</ele>
        <time>2018-02-22T12:28:08Z</time>
      </trkpt>
      <trkpt lat="44.3312" lon="4.79111">
        <ele>165.96</ele>
        <time>2018-02-22T12:28:27Z</time>
      </trkpt>
      <trkpt lat="44.33124" lon="4.79113">
        <ele>163.08</ele>
        <time>2018-02-22T12:28:43Z</time>
      </trkpt>
      <trkpt lat="44.33124" lon="4.79113">
        <ele>163.08</ele>
        <time>2018-02-22T12:28:44Z</time>
      </trkpt>
      <trkpt lat="44.33125" lon="4.79111">
        <ele>165.96</ele>
        <time>2018-02-22T12:28:48Z</time>
      </trkpt>
      <trkpt lat="44.33126" lon="4.7911">
        <ele>164.04</ele>
        <time>2018-02-22T12:28:50Z</time>
      </trkpt>
      <trkpt lat="44.33127" lon="4.79108">
        <ele>166.45</ele>
        <time>2018-02-22T12:28:54Z</time>
      </trkpt>
      <trkpt lat="44.33128" lon="4.79104">
        <ele>165.96</ele>
        <time>2018-02-22T12:29:04Z</time>
      </trkpt>
      <trkpt lat="44.33127" lon="4.79104">
        <ele>166.45</ele>
        <time>2018-02-22T12:29:16Z</time>
      </trkpt>
      <trkpt lat="44.33126" lon="4.79104">
        <ele>167.89</ele>
        <time>2018-02-22T12:29:45Z</time>
      </trkpt>
      <trkpt lat="44.33126" lon="4.79102">
        <ele>166.93</ele>
        <time>2018-02-22T12:30:05Z</time>
      </trkpt>
      <trkpt lat="44.33122" lon="4.79111">
        <ele>165.96</ele>
        <time>2018-02-22T12:30:20Z</time>
      </trkpt>
      <trkpt lat="44.33121" lon="4.7911">
        <ele>166.93</ele>
        <time>2018-02-22T12:30:24Z</time>
      </trkpt>
      <trkpt lat="44.33121" lon="4.7911">
        <ele>166.45</ele>
        <time>2018-02-22T12:30:29Z</time>
      </trkpt>
      <trkpt lat="44.33122" lon="4.79111">
        <ele>166.93</ele>
        <time>2018-02-22T12:30:43Z</time>
      </trkpt>
      <trkpt lat="44.33117" lon="4.79113">
        <ele>165.48</ele>
        <time>2018-02-22T12:30:59Z</time>
      </trkpt>
      <trkpt lat="44.33116" lon="4.79113">
        <ele>165.48</ele>
        <time>2018-02-22T12:31:00Z</time>
      </trkpt>
      <trkpt lat="44.33109" lon="4.7911">
        <ele>167.41</ele>
        <time>2018-02-22T12:31:10Z</time>
      </trkpt>
      <trkpt lat="44.33106" lon="4.79109">
        <ele>165.48</ele>
        <time>2018-02-22T12:31:13Z</time>
      </trkpt>
      <trkpt lat="44.33095" lon="4.79104">
        <ele>165.96</ele>
        <time>2018-02-22T12:31:32Z</time>
      </trkpt>
      <trkpt lat="44.33091" lon="4.79102">
        <ele>167.41</ele>
        <time>2018-02-22T12:31:39Z</time>
      </trkpt>
      <trkpt lat="44.33083" lon="4.79098">
        <ele>165.96</ele>
        <time>2018-02-22T12:31:59Z</time>
      </trkpt>
      <trkpt lat="44.33076" lon="4.79095">
        <ele>167.41</ele>
        <time>2018-02-22T12:32:14Z</time>
      </trkpt>
      <trkpt lat="44.33075" lon="4.79094">
        <ele>167.41</ele>
        <time>2018-02-22T12:32:18Z</time>
      </trkpt>
      <trkpt lat="44.33072" lon="4.79093">
        <ele>169.33</ele>
        <time>2018-02-22T12:32:21Z</time>
      </trkpt>
      <trkpt lat="44.33071" lon="4.79092">
        <ele>169.33</ele>
        <time>2018-02-22T12:32:23Z</time>
      </trkpt>
      <trkpt lat="44.33067" lon="4.7909">
        <ele>171.73</ele>
        <time>2018-02-22T12:32:27Z</time>
      </trkpt>
      <trkpt lat="44.33065" lon="4.79088">
        <ele>170.29</ele>
        <time>2018-02-22T12:32:30Z</time>
      </trkpt>
      <trkpt lat="44.33063" lon="4.79086">
        <ele>171.73</ele>
        <time>2018-02-22T12:32:33Z</time>
      </trkpt>
      <trkpt lat="44.33058" lon="4.79079">
        <ele>174.62</ele>
        <time>2018-02-22T12:32:43Z</time>
      </trkpt>
      <trkpt lat="44.33055" lon="4.79078">
        <ele>176.06</ele>
        <time>2018-02-22T12:32:54Z</time>
      </trkpt>
      <trkpt lat="44.33053" lon="4.79078">
        <ele>176.06</ele>
        <time>2018-02-22T12:32:59Z</time>
      </trkpt>
      <trkpt lat="44.33045" lon="4.79078">
        <ele>177.98</ele>
        <time>2018-02-22T12:33:14Z</time>
      </trkpt>
      <trkpt lat="44.33039" lon="4.79078">
        <ele>176.06</ele>
        <time>2018-02-22T12:33:23Z</time>
      </trkpt>
      <trkpt lat="44.33035" lon="4.79078">
        <ele>175.1</ele>
        <time>2018-02-22T12:33:27Z</time>
      </trkpt>
      <trkpt lat="44.33032" lon="4.79085">
        <ele>176.54</ele>
        <time>2018-02-22T12:33:32Z</time>
      </trkpt>
      <trkpt lat="44.33032" lon="4.79091">
        <ele>177.02</ele>
        <time>2018-02-22T12:33:50Z</time>
      </trkpt>
      <trkpt lat="44.33033" lon="4.79097">
        <ele>176.06</ele>
        <time>2018-02-22T12:34:00Z</time>
      </trkpt>
      <trkpt lat="44.33034" lon="4.79102">
        <ele>176.54</ele>
        <time>2018-02-22T12:34:05Z</time>
      </trkpt>
      <trkpt lat="44.33033" lon="4.791">
        <ele>175.1</ele>
        <time>2018-02-22T12:34:13Z</time>
      </trkpt>
      <trkpt lat="44.33033" lon="4.79101">
        <ele>177.02</ele>
        <time>2018-02-22T12:34:27Z</time>
      </trkpt>
      <trkpt lat="44.33034" lon="4.79107">
        <ele>174.14</ele>
        <time>2018-02-22T12:34:36Z</time>
      </trkpt>
      <trkpt lat="44.33034" lon="4.79113">
        <ele>174.62</ele>
        <time>2018-02-22T12:34:42Z</time>
      </trkpt>
      <trkpt lat="44.33035" lon="4.79115">
        <ele>177.98</ele>
        <time>2018-02-22T12:34:47Z</time>
      </trkpt>
      <trkpt lat="44.33035" lon="4.79125">
        <ele>176.54</ele>
        <time>2018-02-22T12:35:01Z</time>
      </trkpt>
      <trkpt lat="44.33035" lon="4.79126">
        <ele>176.54</ele>
        <time>2018-02-22T12:35:02Z</time>
      </trkpt>
      <trkpt lat="44.33035" lon="4.79131">
        <ele>179.9</ele>
        <time>2018-02-22T12:35:07Z</time>
      </trkpt>
      <trkpt lat="44.33035" lon="4.79132">
        <ele>179.9</ele>
        <time>2018-02-22T12:35:08Z</time>
      </trkpt>
      <trkpt lat="44.33035" lon="4.79138">
        <ele>178.94</ele>
        <time>2018-02-22T12:35:19Z</time>
      </trkpt>
      <trkpt lat="44.33036" lon="4.79157">
        <ele>181.35</ele>
        <time>2018-02-22T12:35:34Z</time>
      </trkpt>
      <trkpt lat="44.33035" lon="4.7918">
        <ele>182.79</ele>
        <time>2018-02-22T12:35:50Z</time>
      </trkpt>
      <trkpt lat="44.33033" lon="4.79188">
        <ele>182.79</ele>
        <time>2018-02-22T12:35:59Z</time>
      </trkpt>
      <trkpt lat="44.33032" lon="4.79199">
        <ele>184.23</ele>
        <time>2018-02-22T12:36:06Z</time>
      </trkpt>
      <trkpt lat="44.33031" lon="4.79212">
        <ele>184.71</ele>
        <time>2018-02-22T12:36:16Z</time>
      </trkpt>
      <trkpt lat="44.33026" lon="4.79231">
        <ele>185.19</ele>
        <time>2018-02-22T12:36:29Z</time>
      </trkpt>
      <trkpt lat="44.33025" lon="4.79235">
        <ele>185.19</ele>
        <time>2018-02-22T12:36:32Z</time>
      </trkpt>
      <trkpt lat="44.33025" lon="4.79242">
        <ele>186.15</ele>
        <time>2018-02-22T12:36:37Z</time>
      </trkpt>
      <trkpt lat="44.33024" lon="4.79248">
        <ele>187.11</ele>
        <time>2018-02-22T12:36:41Z</time>
      </trkpt>
      <trkpt lat="44.33019" lon="4.79265">
        <ele>187.11</ele>
        <time>2018-02-22T12:36:56Z</time>
      </trkpt>
      <trkpt lat="44.33009" lon="4.79288">
        <ele>187.11</ele>
        <time>2018-02-22T12:37:15Z</time>
      </trkpt>
      <trkpt lat="44.33006" lon="4.79293">
        <ele>185.19</ele>
        <time>2018-02-22T12:37:20Z</time>
      </trkpt>
      <trkpt lat="44.33004" lon="4.79295">
        <ele>187.11</ele>
        <time>2018-02-22T12:37:23Z</time>
      </trkpt>
      <trkpt lat="44.32996" lon="4.79308">
        <ele>190</ele>
        <time>2018-02-22T12:37:36Z</time>
      </trkpt>
      <trkpt lat="44.32994" lon="4.79312">
        <ele>188.56</ele>
        <time>2018-02-22T12:37:39Z</time>
      </trkpt>
      <trkpt lat="44.32992" lon="4.79318">
        <ele>186.63</ele>
        <time>2018-02-22T12:37:44Z</time>
      </trkpt>
      <trkpt lat="44.32989" lon="4.79325">
        <ele>188.08</ele>
        <time>2018-02-22T12:37:49Z</time>
      </trkpt>
      <trkpt lat="44.32985" lon="4.79332">
        <ele>188.08</ele>
        <time>2018-02-22T12:37:56Z</time>
      </trkpt>
      <trkpt lat="44.32983" lon="4.79338">
        <ele>187.11</ele>
        <time>2018-02-22T12:38:00Z</time>
      </trkpt>
      <trkpt lat="44.32976" lon="4.79346">
        <ele>187.11</ele>
        <time>2018-02-22T12:38:12Z</time>
      </trkpt>
      <trkpt lat="44.3297" lon="4.79357">
        <ele>188.08</ele>
        <time>2018-02-22T12:38:25Z</time>
      </trkpt>
      <trkpt lat="44.3296" lon="4.79374">
        <ele>188.08</ele>
        <time>2018-02-22T12:38:41Z</time>
      </trkpt>
      <trkpt lat="44.32951" lon="4.79387">
        <ele>188.08</ele>
        <time>2018-02-22T12:38:57Z</time>
      </trkpt>
      <trkpt lat="44.32952" lon="4.79386">
        <ele>188.08</ele>
        <time>2018-02-22T12:39:05Z</time>
      </trkpt>
      <trkpt lat="44.32955" lon="4.79379">
        <ele>188.08</ele>
        <time>2018-02-22T12:39:10Z</time>
      </trkpt>
      <trkpt lat="44.32956" lon="4.79377">
        <ele>188.08</ele>
        <time>2018-02-22T12:39:21Z</time>
      </trkpt>
      <trkpt lat="44.32952" lon="4.79382">
        <ele>188.08</ele>
        <time>2018-02-22T12:39:31Z</time>
      </trkpt>
      <trkpt lat="44.32939" lon="4.7938">
        <ele>188.56</ele>
        <time>2018-02-22T12:39:48Z</time>
      </trkpt>
      <trkpt lat="44.32939" lon="4.79379">
        <ele>187.59</ele>
        <time>2018-02-22T12:39:57Z</time>
      </trkpt>
      <trkpt lat="44.32937" lon="4.79378">
        <ele>187.59</ele>
        <time>2018-02-22T12:40:11Z</time>
      </trkpt>
      <trkpt lat="44.32928" lon="4.79362">
        <ele>189.04</ele>
        <time>2018-02-22T12:40:28Z</time>
      </trkpt>
      <trkpt lat="44.32926" lon="4.79355">
        <ele>188.56</ele>
        <time>2018-02-22T12:40:37Z</time>
      </trkpt>
      <trkpt lat="44.32925" lon="4.79353">
        <ele>190</ele>
        <time>2018-02-22T12:40:41Z</time>
      </trkpt>
      <trkpt lat="44.32918" lon="4.79341">
        <ele>188.56</ele>
        <time>2018-02-22T12:40:56Z</time>
      </trkpt>
      <trkpt lat="44.32912" lon="4.79333">
        <ele>188.08</ele>
        <time>2018-02-22T12:41:05Z</time>
      </trkpt>
      <trkpt lat="44.32908" lon="4.79328">
        <ele>190.48</ele>
        <time>2018-02-22T12:41:10Z</time>
      </trkpt>
      <trkpt lat="44.32905" lon="4.79311">
        <ele>190</ele>
        <time>2018-02-22T12:41:27Z</time>
      </trkpt>
      <trkpt lat="44.32908" lon="4.79303">
        <ele>191.44</ele>
        <time>2018-02-22T12:41:42Z</time>
      </trkpt>
      <trkpt lat="44.3291" lon="4.79304">
        <ele>190.48</ele>
        <time>2018-02-22T12:42:00Z</time>
      </trkpt>
      <trkpt lat="44.3291" lon="4.79309">
        <ele>190.48</ele>
        <time>2018-02-22T12:42:17Z</time>
      </trkpt>
      <trkpt lat="44.32908" lon="4.7931">
        <ele>190.96</ele>
        <time>2018-02-22T12:42:45Z</time>
      </trkpt>
      <trkpt lat="44.3291" lon="4.79312">
        <ele>190.96</ele>
        <time>2018-02-22T12:43:12Z</time>
      </trkpt>
      <trkpt lat="44.32909" lon="4.79318">
        <ele>190</ele>
        <time>2018-02-22T12:43:33Z</time>
      </trkpt>
      <trkpt lat="44.32909" lon="4.79317">
        <ele>191.44</ele>
        <time>2018-02-22T12:43:38Z</time>
      </trkpt>
      <trkpt lat="44.32908" lon="4.79315">
        <ele>190</ele>
        <time>2018-02-22T12:43:54Z</time>
      </trkpt>
      <trkpt lat="44.32909" lon="4.79313">
        <ele>190</ele>
        <time>2018-02-22T12:44:32Z</time>
      </trkpt>
      <trkpt lat="44.3291" lon="4.793">
        <ele>190.48</ele>
        <time>2018-02-22T12:44:46Z</time>
      </trkpt>
      <trkpt lat="44.32906" lon="4.79279">
        <ele>191.44</ele>
        <time>2018-02-22T12:45:02Z</time>
      </trkpt>
      <trkpt lat="44.3291" lon="4.79259">
        <ele>191.92</ele>
        <time>2018-02-22T12:45:21Z</time>
      </trkpt>
      <trkpt lat="44.32912" lon="4.79237">
        <ele>191.92</ele>
        <time>2018-02-22T12:45:38Z</time>
      </trkpt>
      <trkpt lat="44.32915" lon="4.79221">
        <ele>193.84</ele>
        <time>2018-02-22T12:45:51Z</time>
      </trkpt>
      <trkpt lat="44.32918" lon="4.79201">
        <ele>195.28</ele>
        <time>2018-02-22T12:46:06Z</time>
      </trkpt>
      <trkpt lat="44.3292" lon="4.79191">
        <ele>195.28</ele>
        <time>2018-02-22T12:46:15Z</time>
      </trkpt>
      <trkpt lat="44.32924" lon="4.79175">
        <ele>194.8</ele>
        <time>2018-02-22T12:46:29Z</time>
      </trkpt>
      <trkpt lat="44.32925" lon="4.79154">
        <ele>197.69</ele>
        <time>2018-02-22T12:46:46Z</time>
      </trkpt>
      <trkpt lat="44.32928" lon="4.79133">
        <ele>199.13</ele>
        <time>2018-02-22T12:47:02Z</time>
      </trkpt>
      <trkpt lat="44.32929" lon="4.79125">
        <ele>199.13</ele>
        <time>2018-02-22T12:47:09Z</time>
      </trkpt>
      <trkpt lat="44.32932" lon="4.79105">
        <ele>199.61</ele>
        <time>2018-02-22T12:47:24Z</time>
      </trkpt>
      <trkpt lat="44.3293" lon="4.79086">
        <ele>201.53</ele>
        <time>2018-02-22T12:47:39Z</time>
      </trkpt>
      <trkpt lat="44.32928" lon="4.79081">
        <ele>201.53</ele>
        <time>2018-02-22T12:47:43Z</time>
      </trkpt>
      <trkpt lat="44.32925" lon="4.79066">
        <ele>202.49</ele>
        <time>2018-02-22T12:47:53Z</time>
      </trkpt>
      <trkpt lat="44.32923" lon="4.79049">
        <ele>204.42</ele>
        <time>2018-02-22T12:48:08Z</time>
      </trkpt>
      <trkpt lat="44.32917" lon="4.79031">
        <ele>204.9</ele>
        <time>2018-02-22T12:48:25Z</time>
      </trkpt>
      <trkpt lat="44.32908" lon="4.79014">
        <ele>204.9</ele>
        <time>2018-02-22T12:48:41Z</time>
      </trkpt>
      <trkpt lat="44.329" lon="4.79005">
        <ele>204.42</ele>
        <time>2018-02-22T12:48:56Z</time>
      </trkpt>
      <trkpt lat="44.32899" lon="4.79004">
        <ele>204.42</ele>
        <time>2018-02-22T12:48:57Z</time>
      </trkpt>
      <trkpt lat="44.32898" lon="4.79001">
        <ele>204.9</ele>
        <time>2018-02-22T12:49:01Z</time>
      </trkpt>
      <trkpt lat="44.32893" lon="4.78994">
        <ele>204.9</ele>
        <time>2018-02-22T12:49:08Z</time>
      </trkpt>
      <trkpt lat="44.32888" lon="4.78989">
        <ele>206.82</ele>
        <time>2018-02-22T12:49:15Z</time>
      </trkpt>
      <trkpt lat="44.32886" lon="4.78986">
        <ele>205.38</ele>
        <time>2018-02-22T12:49:18Z</time>
      </trkpt>
      <trkpt lat="44.32882" lon="4.78983">
        <ele>206.34</ele>
        <time>2018-02-22T12:49:22Z</time>
      </trkpt>
      <trkpt lat="44.32871" lon="4.78965">
        <ele>206.34</ele>
        <time>2018-02-22T12:49:37Z</time>
      </trkpt>
      <trkpt lat="44.32868" lon="4.78961">
        <ele>205.38</ele>
        <time>2018-02-22T12:49:40Z</time>
      </trkpt>
      <trkpt lat="44.32865" lon="4.78956">
        <ele>206.82</ele>
        <time>2018-02-22T12:49:44Z</time>
      </trkpt>
      <trkpt lat="44.32854" lon="4.78941">
        <ele>206.82</ele>
        <time>2018-02-22T12:49:59Z</time>
      </trkpt>
      <trkpt lat="44.32841" lon="4.78921">
        <ele>206.82</ele>
        <time>2018-02-22T12:50:17Z</time>
      </trkpt>
      <trkpt lat="44.32831" lon="4.78906">
        <ele>207.78</ele>
        <time>2018-02-22T12:50:30Z</time>
      </trkpt>
      <trkpt lat="44.32821" lon="4.78893">
        <ele>208.26</ele>
        <time>2018-02-22T12:50:45Z</time>
      </trkpt>
      <trkpt lat="44.32809" lon="4.7887">
        <ele>208.74</ele>
        <time>2018-02-22T12:51:01Z</time>
      </trkpt>
      <trkpt lat="44.32797" lon="4.78856">
        <ele>207.78</ele>
        <time>2018-02-22T12:51:16Z</time>
      </trkpt>
      <trkpt lat="44.32795" lon="4.78853">
        <ele>209.22</ele>
        <time>2018-02-22T12:51:20Z</time>
      </trkpt>
      <trkpt lat="44.32781" lon="4.78832">
        <ele>209.7</ele>
        <time>2018-02-22T12:51:39Z</time>
      </trkpt>
      <trkpt lat="44.32775" lon="4.78818">
        <ele>209.7</ele>
        <time>2018-02-22T12:51:50Z</time>
      </trkpt>
      <trkpt lat="44.32756" lon="4.78797">
        <ele>209.22</ele>
        <time>2018-02-22T12:52:13Z</time>
      </trkpt>
      <trkpt lat="44.32747" lon="4.78786">
        <ele>210.19</ele>
        <time>2018-02-22T12:52:26Z</time>
      </trkpt>
      <trkpt lat="44.32738" lon="4.78775">
        <ele>209.22</ele>
        <time>2018-02-22T12:52:40Z</time>
      </trkpt>
      <trkpt lat="44.32726" lon="4.78762">
        <ele>210.19</ele>
        <time>2018-02-22T12:52:58Z</time>
      </trkpt>
      <trkpt lat="44.32719" lon="4.78755">
        <ele>207.78</ele>
        <time>2018-02-22T12:53:08Z</time>
      </trkpt>
      <trkpt lat="44.32713" lon="4.78751">
        <ele>207.3</ele>
        <time>2018-02-22T12:53:17Z</time>
      </trkpt>
      <trkpt lat="44.3271" lon="4.7875">
        <ele>209.22</ele>
        <time>2018-02-22T12:53:21Z</time>
      </trkpt>
      <trkpt lat="44.32709" lon="4.78749">
        <ele>207.78</ele>
        <time>2018-02-22T12:53:23Z</time>
      </trkpt>
      <trkpt lat="44.327" lon="4.78743">
        <ele>208.74</ele>
        <time>2018-02-22T12:53:34Z</time>
      </trkpt>
      <trkpt lat="44.32695" lon="4.7874">
        <ele>206.34</ele>
        <time>2018-02-22T12:53:40Z</time>
      </trkpt>
      <trkpt lat="44.32688" lon="4.78735">
        <ele>207.3</ele>
        <time>2018-02-22T12:53:50Z</time>
      </trkpt>
      <trkpt lat="44.32678" lon="4.78731">
        <ele>205.38</ele>
        <time>2018-02-22T12:54:08Z</time>
      </trkpt>
      <trkpt lat="44.32678" lon="4.78731">
        <ele>206.82</ele>
        <time>2018-02-22T12:54:14Z</time>
      </trkpt>
      <trkpt lat="44.32678" lon="4.78731">
        <ele>205.38</ele>
        <time>2018-02-22T12:54:20Z</time>
      </trkpt>
      <trkpt lat="44.32678" lon="4.7873">
        <ele>205.38</ele>
        <time>2018-02-22T12:54:36Z</time>
      </trkpt>
      <trkpt lat="44.32669" lon="4.7873">
        <ele>203.94</ele>
        <time>2018-02-22T12:54:52Z</time>
      </trkpt>
      <trkpt lat="44.32665" lon="4.7873">
        <ele>205.86</ele>
        <time>2018-02-22T12:54:58Z</time>
      </trkpt>
      <trkpt lat="44.32663" lon="4.78732">
        <ele>204.42</ele>
        <time>2018-02-22T12:55:02Z</time>
      </trkpt>
      <trkpt lat="44.32656" lon="4.78738">
        <ele>203.46</ele>
        <time>2018-02-22T12:55:18Z</time>
      </trkpt>
      <trkpt lat="44.32653" lon="4.7874">
        <ele>203.46</ele>
        <time>2018-02-22T12:55:34Z</time>
      </trkpt>
      <trkpt lat="44.32647" lon="4.78745">
        <ele>206.34</ele>
        <time>2018-02-22T12:55:49Z</time>
      </trkpt>
      <trkpt lat="44.32645" lon="4.78747">
        <ele>203.94</ele>
        <time>2018-02-22T12:55:52Z</time>
      </trkpt>
      <trkpt lat="44.32631" lon="4.78754">
        <ele>203.94</ele>
        <time>2018-02-22T12:56:12Z</time>
      </trkpt>
      <trkpt lat="44.32619" lon="4.78759">
        <ele>203.94</ele>
        <time>2018-02-22T12:56:28Z</time>
      </trkpt>
      <trkpt lat="44.32614" lon="4.78762">
        <ele>203.94</ele>
        <time>2018-02-22T12:56:35Z</time>
      </trkpt>
      <trkpt lat="44.32606" lon="4.78768">
        <ele>201.05</ele>
        <time>2018-02-22T12:56:44Z</time>
      </trkpt>
      <trkpt lat="44.32605" lon="4.7877">
        <ele>202.49</ele>
        <time>2018-02-22T12:56:46Z</time>
      </trkpt>
      <trkpt lat="44.32592" lon="4.78783">
        <ele>204.9</ele>
        <time>2018-02-22T12:57:03Z</time>
      </trkpt>
      <trkpt lat="44.32588" lon="4.7879">
        <ele>204.9</ele>
        <time>2018-02-22T12:57:19Z</time>
      </trkpt>
      <trkpt lat="44.32582" lon="4.78805">
        <ele>203.94</ele>
        <time>2018-02-22T12:57:32Z</time>
      </trkpt>
      <trkpt lat="44.32578" lon="4.78816">
        <ele>205.38</ele>
        <time>2018-02-22T12:57:40Z</time>
      </trkpt>
      <trkpt lat="44.32571" lon="4.78847">
        <ele>206.34</ele>
        <time>2018-02-22T12:58:00Z</time>
      </trkpt>
      <trkpt lat="44.32556" lon="4.78876">
        <ele>204.9</ele>
        <time>2018-02-22T12:58:22Z</time>
      </trkpt>
      <trkpt lat="44.32544" lon="4.78889">
        <ele>204.9</ele>
        <time>2018-02-22T12:58:37Z</time>
      </trkpt>
      <trkpt lat="44.32539" lon="4.78895">
        <ele>202.49</ele>
        <time>2018-02-22T12:58:45Z</time>
      </trkpt>
      <trkpt lat="44.32533" lon="4.78904">
        <ele>203.94</ele>
        <time>2018-02-22T12:58:59Z</time>
      </trkpt>
      <trkpt lat="44.32532" lon="4.78904">
        <ele>203.94</ele>
        <time>2018-02-22T12:59:04Z</time>
      </trkpt>
      <trkpt lat="44.32531" lon="4.78907">
        <ele>202.98</ele>
        <time>2018-02-22T12:59:12Z</time>
      </trkpt>
      <trkpt lat="44.32526" lon="4.78927">
        <ele>202.98</ele>
        <time>2018-02-22T12:59:30Z</time>
      </trkpt>
      <trkpt lat="44.32525" lon="4.78939">
        <ele>202.49</ele>
        <time>2018-02-22T12:59:49Z</time>
      </trkpt>
      <trkpt lat="44.32524" lon="4.78947">
        <ele>201.53</ele>
        <time>2018-02-22T13:00:00Z</time>
      </trkpt>
      <trkpt lat="44.32524" lon="4.78951">
        <ele>201.05</ele>
        <time>2018-02-22T13:00:02Z</time>
      </trkpt>
      <trkpt lat="44.32524" lon="4.78954">
        <ele>202.98</ele>
        <time>2018-02-22T13:00:04Z</time>
      </trkpt>
      <trkpt lat="44.32523" lon="4.78987">
        <ele>201.05</ele>
        <time>2018-02-22T13:00:26Z</time>
      </trkpt>
      <trkpt lat="44.32524" lon="4.79">
        <ele>199.61</ele>
        <time>2018-02-22T13:00:43Z</time>
      </trkpt>
      <trkpt lat="44.32523" lon="4.79006">
        <ele>202.98</ele>
        <time>2018-02-22T13:00:49Z</time>
      </trkpt>
      <trkpt lat="44.32522" lon="4.79009">
        <ele>199.61</ele>
        <time>2018-02-22T13:00:52Z</time>
      </trkpt>
      <trkpt lat="44.32521" lon="4.7901">
        <ele>199.61</ele>
        <time>2018-02-22T13:00:53Z</time>
      </trkpt>
      <trkpt lat="44.32521" lon="4.79027">
        <ele>199.13</ele>
        <time>2018-02-22T13:01:07Z</time>
      </trkpt>
      <trkpt lat="44.32521" lon="4.7904">
        <ele>199.61</ele>
        <time>2018-02-22T13:01:22Z</time>
      </trkpt>
      <trkpt lat="44.32519" lon="4.79054">
        <ele>197.69</ele>
        <time>2018-02-22T13:01:38Z</time>
      </trkpt>
      <trkpt lat="44.32519" lon="4.79056">
        <ele>200.57</ele>
        <time>2018-02-22T13:01:41Z</time>
      </trkpt>
      <trkpt lat="44.32518" lon="4.79059">
        <ele>198.65</ele>
        <time>2018-02-22T13:01:47Z</time>
      </trkpt>
      <trkpt lat="44.32518" lon="4.79057">
        <ele>198.65</ele>
        <time>2018-02-22T13:02:01Z</time>
      </trkpt>
      <trkpt lat="44.32518" lon="4.79056">
        <ele>200.09</ele>
        <time>2018-02-22T13:02:03Z</time>
      </trkpt>
      <trkpt lat="44.32518" lon="4.7905">
        <ele>198.65</ele>
        <time>2018-02-22T13:02:11Z</time>
      </trkpt>
      <trkpt lat="44.32519" lon="4.79043">
        <ele>198.65</ele>
        <time>2018-02-22T13:02:16Z</time>
      </trkpt>
      <trkpt lat="44.32519" lon="4.79038">
        <ele>198.17</ele>
        <time>2018-02-22T13:02:26Z</time>
      </trkpt>
      <trkpt lat="44.32519" lon="4.79035">
        <ele>197.69</ele>
        <time>2018-02-22T13:02:31Z</time>
      </trkpt>
      <trkpt lat="44.32519" lon="4.7903">
        <ele>199.13</ele>
        <time>2018-02-22T13:02:35Z</time>
      </trkpt>
      <trkpt lat="44.3252" lon="4.79006">
        <ele>200.57</ele>
        <time>2018-02-22T13:02:50Z</time>
      </trkpt>
      <trkpt lat="44.32519" lon="4.78996">
        <ele>198.65</ele>
        <time>2018-02-22T13:03:02Z</time>
      </trkpt>
      <trkpt lat="44.32517" lon="4.78994">
        <ele>200.09</ele>
        <time>2018-02-22T13:03:07Z</time>
      </trkpt>
      <trkpt lat="44.32515" lon="4.78992">
        <ele>199.13</ele>
        <time>2018-02-22T13:03:16Z</time>
      </trkpt>
      <trkpt lat="44.32505" lon="4.78991">
        <ele>200.09</ele>
        <time>2018-02-22T13:03:31Z</time>
      </trkpt>
      <trkpt lat="44.32498" lon="4.78991">
        <ele>200.09</ele>
        <time>2018-02-22T13:03:38Z</time>
      </trkpt>
      <trkpt lat="44.32487" lon="4.78991">
        <ele>200.09</ele>
        <time>2018-02-22T13:03:49Z</time>
      </trkpt>
      <trkpt lat="44.32481" lon="4.78992">
        <ele>200.09</ele>
        <time>2018-02-22T13:03:56Z</time>
      </trkpt>
      <trkpt lat="44.32477" lon="4.78993">
        <ele>199.13</ele>
        <time>2018-02-22T13:04:09Z</time>
      </trkpt>
      <trkpt lat="44.3247" lon="4.78992">
        <ele>197.69</ele>
        <time>2018-02-22T13:04:14Z</time>
      </trkpt>
      <trkpt lat="44.32463" lon="4.78993">
        <ele>198.65</ele>
        <time>2018-02-22T13:04:20Z</time>
      </trkpt>
      <trkpt lat="44.32456" lon="4.78993">
        <ele>199.61</ele>
        <time>2018-02-22T13:04:26Z</time>
      </trkpt>
      <trkpt lat="44.32451" lon="4.78995">
        <ele>198.17</ele>
        <time>2018-02-22T13:04:32Z</time>
      </trkpt>
      <trkpt lat="44.32445" lon="4.78994">
        <ele>198.17</ele>
        <time>2018-02-22T13:04:38Z</time>
      </trkpt>
      <trkpt lat="44.32429" lon="4.78994">
        <ele>196.73</ele>
        <time>2018-02-22T13:04:50Z</time>
      </trkpt>
      <trkpt lat="44.32425" lon="4.78993">
        <ele>195.77</ele>
        <time>2018-02-22T13:04:54Z</time>
      </trkpt>
      <trkpt lat="44.32419" lon="4.78995">
        <ele>197.69</ele>
        <time>2018-02-22T13:05:00Z</time>
      </trkpt>
      <trkpt lat="44.32412" lon="4.78995">
        <ele>195.77</ele>
        <time>2018-02-22T13:05:06Z</time>
      </trkpt>
      <trkpt lat="44.3239" lon="4.78996">
        <ele>195.77</ele>
        <time>2018-02-22T13:05:25Z</time>
      </trkpt>
      <trkpt lat="44.32375" lon="4.78997">
        <ele>195.77</ele>
        <time>2018-02-22T13:05:39Z</time>
      </trkpt>
      <trkpt lat="44.32369" lon="4.78997">
        <ele>197.21</ele>
        <time>2018-02-22T13:05:45Z</time>
      </trkpt>
      <trkpt lat="44.32366" lon="4.78996">
        <ele>197.21</ele>
        <time>2018-02-22T13:05:48Z</time>
      </trkpt>
      <trkpt lat="44.32358" lon="4.78997">
        <ele>197.69</ele>
        <time>2018-02-22T13:06:01Z</time>
      </trkpt>
      <trkpt lat="44.32347" lon="4.78999">
        <ele>197.69</ele>
        <time>2018-02-22T13:06:15Z</time>
      </trkpt>
      <trkpt lat="44.32343" lon="4.78999">
        <ele>197.69</ele>
        <time>2018-02-22T13:06:27Z</time>
      </trkpt>
      <trkpt lat="44.32333" lon="4.78998">
        <ele>196.25</ele>
        <time>2018-02-22T13:06:35Z</time>
      </trkpt>
      <trkpt lat="44.32323" lon="4.78998">
        <ele>195.77</ele>
        <time>2018-02-22T13:06:46Z</time>
      </trkpt>
      <trkpt lat="44.32312" lon="4.78999">
        <ele>196.73</ele>
        <time>2018-02-22T13:06:59Z</time>
      </trkpt>
      <trkpt lat="44.323" lon="4.79003">
        <ele>194.8</ele>
        <time>2018-02-22T13:07:13Z</time>
      </trkpt>
      <trkpt lat="44.32282" lon="4.79013">
        <ele>194.8</ele>
        <time>2018-02-22T13:07:28Z</time>
      </trkpt>
      <trkpt lat="44.3227" lon="4.79017">
        <ele>194.32</ele>
        <time>2018-02-22T13:07:41Z</time>
      </trkpt>
      <trkpt lat="44.32258" lon="4.79024">
        <ele>194.32</ele>
        <time>2018-02-22T13:07:53Z</time>
      </trkpt>
      <trkpt lat="44.32245" lon="4.79029">
        <ele>194.32</ele>
        <time>2018-02-22T13:08:05Z</time>
      </trkpt>
      <trkpt lat="44.32242" lon="4.79029">
        <ele>193.84</ele>
        <time>2018-02-22T13:08:11Z</time>
      </trkpt>
      <trkpt lat="44.32224" lon="4.79041">
        <ele>193.36</ele>
        <time>2018-02-22T13:08:25Z</time>
      </trkpt>
      <trkpt lat="44.32209" lon="4.79049">
        <ele>193.36</ele>
        <time>2018-02-22T13:08:42Z</time>
      </trkpt>
      <trkpt lat="44.32204" lon="4.79053">
        <ele>192.88</ele>
        <time>2018-02-22T13:08:48Z</time>
      </trkpt>
      <trkpt lat="44.32198" lon="4.7906">
        <ele>193.36</ele>
        <time>2018-02-22T13:08:55Z</time>
      </trkpt>
      <trkpt lat="44.32186" lon="4.79074">
        <ele>191.44</ele>
        <time>2018-02-22T13:09:11Z</time>
      </trkpt>
      <trkpt lat="44.32175" lon="4.79089">
        <ele>191.44</ele>
        <time>2018-02-22T13:09:25Z</time>
      </trkpt>
      <trkpt lat="44.32171" lon="4.79093">
        <ele>189.52</ele>
        <time>2018-02-22T13:09:29Z</time>
      </trkpt>
      <trkpt lat="44.3216" lon="4.79107">
        <ele>189.52</ele>
        <time>2018-02-22T13:09:44Z</time>
      </trkpt>
      <trkpt lat="44.32151" lon="4.79119">
        <ele>189.52</ele>
        <time>2018-02-22T13:09:55Z</time>
      </trkpt>
      <trkpt lat="44.32143" lon="4.79128">
        <ele>189.04</ele>
        <time>2018-02-22T13:10:07Z</time>
      </trkpt>
      <trkpt lat="44.32141" lon="4.79131">
        <ele>188.56</ele>
        <time>2018-02-22T13:10:11Z</time>
      </trkpt>
      <trkpt lat="44.32132" lon="4.79143">
        <ele>188.08</ele>
        <time>2018-02-22T13:10:23Z</time>
      </trkpt>
      <trkpt lat="44.32124" lon="4.79153">
        <ele>187.11</ele>
        <time>2018-02-22T13:10:35Z</time>
      </trkpt>
      <trkpt lat="44.32114" lon="4.79152">
        <ele>184.71</ele>
        <time>2018-02-22T13:10:46Z</time>
      </trkpt>
      <trkpt lat="44.32097" lon="4.79153">
        <ele>182.79</ele>
        <time>2018-02-22T13:11:02Z</time>
      </trkpt>
      <trkpt lat="44.32084" lon="4.79148">
        <ele>180.87</ele>
        <time>2018-02-22T13:11:14Z</time>
      </trkpt>
      <trkpt lat="44.32076" lon="4.79147">
        <ele>178.46</ele>
        <time>2018-02-22T13:11:26Z</time>
      </trkpt>
      <trkpt lat="44.32065" lon="4.79148">
        <ele>177.02</ele>
        <time>2018-02-22T13:11:38Z</time>
      </trkpt>
      <trkpt lat="44.32062" lon="4.79148">
        <ele>178.46</ele>
        <time>2018-02-22T13:11:42Z</time>
      </trkpt>
      <trkpt lat="44.32052" lon="4.79144">
        <ele>175.58</ele>
        <time>2018-02-22T13:11:52Z</time>
      </trkpt>
      <trkpt lat="44.32046" lon="4.79146">
        <ele>173.66</ele>
        <time>2018-02-22T13:12:01Z</time>
      </trkpt>
      <trkpt lat="44.32038" lon="4.79144">
        <ele>172.69</ele>
        <time>2018-02-22T13:12:13Z</time>
      </trkpt>
      <trkpt lat="44.32034" lon="4.79144">
        <ele>172.21</ele>
        <time>2018-02-22T13:12:20Z</time>
      </trkpt>
      <trkpt lat="44.32025" lon="4.79139">
        <ele>171.25</ele>
        <time>2018-02-22T13:12:31Z</time>
      </trkpt>
      <trkpt lat="44.32019" lon="4.79143">
        <ele>169.33</ele>
        <time>2018-02-22T13:12:41Z</time>
      </trkpt>
      <trkpt lat="44.3202" lon="4.79148">
        <ele>170.29</ele>
        <time>2018-02-22T13:12:52Z</time>
      </trkpt>
      <trkpt lat="44.32024" lon="4.79153">
        <ele>169.33</ele>
        <time>2018-02-22T13:13:03Z</time>
      </trkpt>
      <trkpt lat="44.32023" lon="4.79151">
        <ele>170.29</ele>
        <time>2018-02-22T13:13:13Z</time>
      </trkpt>
      <trkpt lat="44.32024" lon="4.79152">
        <ele>170.29</ele>
        <time>2018-02-22T13:13:22Z</time>
      </trkpt>
      <trkpt lat="44.32024" lon="4.79152">
        <ele>170.29</ele>
        <time>2018-02-22T13:13:30Z</time>
      </trkpt>
      <trkpt lat="44.32025" lon="4.79153">
        <ele>170.77</ele>
        <time>2018-02-22T13:13:34Z</time>
      </trkpt>
      <trkpt lat="44.32025" lon="4.79153">
        <ele>169.81</ele>
        <time>2018-02-22T13:14:00Z</time>
      </trkpt>
      <trkpt lat="44.32024" lon="4.79152">
        <ele>169.81</ele>
        <time>2018-02-22T13:14:06Z</time>
      </trkpt>
      <trkpt lat="44.32017" lon="4.79142">
        <ele>169.81</ele>
        <time>2018-02-22T13:14:16Z</time>
      </trkpt>
      <trkpt lat="44.3201" lon="4.79135">
        <ele>170.29</ele>
        <time>2018-02-22T13:14:25Z</time>
      </trkpt>
      <trkpt lat="44.32006" lon="4.79132">
        <ele>170.29</ele>
        <time>2018-02-22T13:14:30Z</time>
      </trkpt>
      <trkpt lat="44.32004" lon="4.7913">
        <ele>168.85</ele>
        <time>2018-02-22T13:14:32Z</time>
      </trkpt>
      <trkpt lat="44.32" lon="4.79123">
        <ele>169.81</ele>
        <time>2018-02-22T13:14:40Z</time>
      </trkpt>
      <trkpt lat="44.31995" lon="4.79124">
        <ele>168.37</ele>
        <time>2018-02-22T13:14:50Z</time>
      </trkpt>
      <trkpt lat="44.31983" lon="4.79127">
        <ele>166.45</ele>
        <time>2018-02-22T13:15:06Z</time>
      </trkpt>
      <trkpt lat="44.31972" lon="4.79123">
        <ele>165.48</ele>
        <time>2018-02-22T13:15:19Z</time>
      </trkpt>
      <trkpt lat="44.31967" lon="4.79114">
        <ele>164.04</ele>
        <time>2018-02-22T13:15:30Z</time>
      </trkpt>
      <trkpt lat="44.31963" lon="4.79113">
        <ele>163.56</ele>
        <time>2018-02-22T13:15:34Z</time>
      </trkpt>
      <trkpt lat="44.31953" lon="4.79116">
        <ele>162.6</ele>
        <time>2018-02-22T13:15:48Z</time>
      </trkpt>
      <trkpt lat="44.31952" lon="4.79116">
        <ele>162.12</ele>
        <time>2018-02-22T13:15:49Z</time>
      </trkpt>
      <trkpt lat="44.31946" lon="4.79116">
        <ele>162.12</ele>
        <time>2018-02-22T13:15:59Z</time>
      </trkpt>
      <trkpt lat="44.31945" lon="4.79118">
        <ele>161.16</ele>
        <time>2018-02-22T13:16:06Z</time>
      </trkpt>
      <trkpt lat="44.31944" lon="4.79119">
        <ele>162.12</ele>
        <time>2018-02-22T13:16:08Z</time>
      </trkpt>
      <trkpt lat="44.31938" lon="4.79122">
        <ele>161.16</ele>
        <time>2018-02-22T13:16:15Z</time>
      </trkpt>
      <trkpt lat="44.31936" lon="4.79125">
        <ele>161.16</ele>
        <time>2018-02-22T13:16:21Z</time>
      </trkpt>
      <trkpt lat="44.31925" lon="4.7914">
        <ele>161.16</ele>
        <time>2018-02-22T13:16:40Z</time>
      </trkpt>
      <trkpt lat="44.3192" lon="4.79147">
        <ele>161.16</ele>
        <time>2018-02-22T13:16:51Z</time>
      </trkpt>
      <trkpt lat="44.31915" lon="4.79154">
        <ele>159.24</ele>
        <time>2018-02-22T13:17:01Z</time>
      </trkpt>
      <trkpt lat="44.3191" lon="4.79166">
        <ele>157.31</ele>
        <time>2018-02-22T13:17:14Z</time>
      </trkpt>
      <trkpt lat="44.31909" lon="4.79169">
        <ele>158.75</ele>
        <time>2018-02-22T13:17:16Z</time>
      </trkpt>
      <trkpt lat="44.31904" lon="4.79174">
        <ele>157.31</ele>
        <time>2018-02-22T13:17:24Z</time>
      </trkpt>
      <trkpt lat="44.31897" lon="4.79173">
        <ele>156.35</ele>
        <time>2018-02-22T13:17:32Z</time>
      </trkpt>
      <trkpt lat="44.31887" lon="4.79175">
        <ele>154.43</ele>
        <time>2018-02-22T13:17:46Z</time>
      </trkpt>
      <trkpt lat="44.3188" lon="4.79176">
        <ele>152.99</ele>
        <time>2018-02-22T13:17:58Z</time>
      </trkpt>
      <trkpt lat="44.31881" lon="4.79175">
        <ele>153.95</ele>
        <time>2018-02-22T13:18:13Z</time>
      </trkpt>
      <trkpt lat="44.3188" lon="4.79174">
        <ele>152.51</ele>
        <time>2018-02-22T13:18:16Z</time>
      </trkpt>
      <trkpt lat="44.31872" lon="4.79169">
        <ele>153.95</ele>
        <time>2018-02-22T13:18:25Z</time>
      </trkpt>
      <trkpt lat="44.31871" lon="4.79169">
        <ele>152.99</ele>
        <time>2018-02-22T13:18:30Z</time>
      </trkpt>
      <trkpt lat="44.31867" lon="4.79163">
        <ele>152.51</ele>
        <time>2018-02-22T13:18:43Z</time>
      </trkpt>
      <trkpt lat="44.31865" lon="4.79161">
        <ele>152.03</ele>
        <time>2018-02-22T13:18:59Z</time>
      </trkpt>
      <trkpt lat="44.31865" lon="4.79161">
        <ele>152.99</ele>
        <time>2018-02-22T13:19:07Z</time>
      </trkpt>
      <trkpt lat="44.31866" lon="4.79165">
        <ele>151.54</ele>
        <time>2018-02-22T13:19:18Z</time>
      </trkpt>
      <trkpt lat="44.31865" lon="4.79169">
        <ele>149.62</ele>
        <time>2018-02-22T13:19:31Z</time>
      </trkpt>
      <trkpt lat="44.31863" lon="4.79166">
        <ele>149.62</ele>
        <time>2018-02-22T13:19:48Z</time>
      </trkpt>
      <trkpt lat="44.31861" lon="4.79164">
        <ele>151.06</ele>
        <time>2018-02-22T13:19:58Z</time>
      </trkpt>
      <trkpt lat="44.31864" lon="4.79166">
        <ele>150.1</ele>
        <time>2018-02-22T13:20:16Z</time>
      </trkpt>
      <trkpt lat="44.31864" lon="4.79172">
        <ele>148.18</ele>
        <time>2018-02-22T13:20:26Z</time>
      </trkpt>
      <trkpt lat="44.31861" lon="4.79169">
        <ele>149.14</ele>
        <time>2018-02-22T13:20:35Z</time>
      </trkpt>
      <trkpt lat="44.31859" lon="4.79169">
        <ele>152.03</ele>
        <time>2018-02-22T13:20:39Z</time>
      </trkpt>
      <trkpt lat="44.31858" lon="4.79169">
        <ele>148.66</ele>
        <time>2018-02-22T13:20:42Z</time>
      </trkpt>
      <trkpt lat="44.31858" lon="4.7917">
        <ele>148.66</ele>
        <time>2018-02-22T13:20:43Z</time>
      </trkpt>
      <trkpt lat="44.31862" lon="4.79168">
        <ele>147.7</ele>
        <time>2018-02-22T13:20:54Z</time>
      </trkpt>
      <trkpt lat="44.31864" lon="4.79168">
        <ele>149.14</ele>
        <time>2018-02-22T13:20:57Z</time>
      </trkpt>
      <trkpt lat="44.31868" lon="4.79171">
        <ele>152.03</ele>
        <time>2018-02-22T13:21:03Z</time>
      </trkpt>
      <trkpt lat="44.31869" lon="4.79172">
        <ele>152.03</ele>
        <time>2018-02-22T13:21:04Z</time>
      </trkpt>
      <trkpt lat="44.31873" lon="4.79182">
        <ele>151.54</ele>
        <time>2018-02-22T13:21:15Z</time>
      </trkpt>
      <trkpt lat="44.31874" lon="4.79197">
        <ele>152.51</ele>
        <time>2018-02-22T13:21:27Z</time>
      </trkpt>
      <trkpt lat="44.31871" lon="4.79201">
        <ele>151.54</ele>
        <time>2018-02-22T13:21:36Z</time>
      </trkpt>
      <trkpt lat="44.3187" lon="4.79203">
        <ele>151.06</ele>
        <time>2018-02-22T13:21:38Z</time>
      </trkpt>
      <trkpt lat="44.31866" lon="4.79213">
        <ele>152.99</ele>
        <time>2018-02-22T13:21:48Z</time>
      </trkpt>
      <trkpt lat="44.31866" lon="4.79218">
        <ele>152.51</ele>
        <time>2018-02-22T13:21:52Z</time>
      </trkpt>
      <trkpt lat="44.31869" lon="4.79219">
        <ele>152.51</ele>
        <time>2018-02-22T13:21:55Z</time>
      </trkpt>
      <trkpt lat="44.31871" lon="4.79222">
        <ele>152.03</ele>
        <time>2018-02-22T13:21:58Z</time>
      </trkpt>
      <trkpt lat="44.3187" lon="4.79242">
        <ele>150.1</ele>
        <time>2018-02-22T13:22:12Z</time>
      </trkpt>
      <trkpt lat="44.3187" lon="4.79244">
        <ele>149.14</ele>
        <time>2018-02-22T13:22:20Z</time>
      </trkpt>
      <trkpt lat="44.31875" lon="4.79247">
        <ele>148.66</ele>
        <time>2018-02-22T13:22:26Z</time>
      </trkpt>
      <trkpt lat="44.31878" lon="4.79249">
        <ele>152.03</ele>
        <time>2018-02-22T13:22:29Z</time>
      </trkpt>
      <trkpt lat="44.31881" lon="4.79259">
        <ele>149.62</ele>
        <time>2018-02-22T13:22:37Z</time>
      </trkpt>
      <trkpt lat="44.31884" lon="4.79263">
        <ele>151.06</ele>
        <time>2018-02-22T13:22:43Z</time>
      </trkpt>
      <trkpt lat="44.31888" lon="4.79271">
        <ele>151.06</ele>
        <time>2018-02-22T13:22:56Z</time>
      </trkpt>
      <trkpt lat="44.3189" lon="4.79277">
        <ele>150.1</ele>
        <time>2018-02-22T13:23:07Z</time>
      </trkpt>
      <trkpt lat="44.31889" lon="4.79282">
        <ele>149.14</ele>
        <time>2018-02-22T13:23:17Z</time>
      </trkpt>
      <trkpt lat="44.31889" lon="4.79282">
        <ele>149.14</ele>
        <time>2018-02-22T13:23:30Z</time>
      </trkpt>
      <trkpt lat="44.31889" lon="4.79285">
        <ele>147.22</ele>
        <time>2018-02-22T13:23:40Z</time>
      </trkpt>
      <trkpt lat="44.31887" lon="4.79286">
        <ele>147.22</ele>
        <time>2018-02-22T13:23:47Z</time>
      </trkpt>
      <trkpt lat="44.31885" lon="4.79288">
        <ele>144.82</ele>
        <time>2018-02-22T13:23:56Z</time>
      </trkpt>
      <trkpt lat="44.31881" lon="4.7929">
        <ele>144.34</ele>
        <time>2018-02-22T13:24:10Z</time>
      </trkpt>
      <trkpt lat="44.31879" lon="4.79291">
        <ele>144.34</ele>
        <time>2018-02-22T13:24:14Z</time>
      </trkpt>
      <trkpt lat="44.31878" lon="4.79295">
        <ele>141.93</ele>
        <time>2018-02-22T13:24:19Z</time>
      </trkpt>
      <trkpt lat="44.31879" lon="4.79302">
        <ele>143.85</ele>
        <time>2018-02-22T13:24:25Z</time>
      </trkpt>
      <trkpt lat="44.31874" lon="4.79303">
        <ele>143.85</ele>
        <time>2018-02-22T13:24:33Z</time>
      </trkpt>
      <trkpt lat="44.31873" lon="4.79301">
        <ele>142.41</ele>
        <time>2018-02-22T13:24:35Z</time>
      </trkpt>
      <trkpt lat="44.31871" lon="4.79299">
        <ele>144.34</ele>
        <time>2018-02-22T13:24:39Z</time>
      </trkpt>
      <trkpt lat="44.31869" lon="4.79296">
        <ele>143.37</ele>
        <time>2018-02-22T13:24:43Z</time>
      </trkpt>
      <trkpt lat="44.31873" lon="4.79293">
        <ele>141.45</ele>
        <time>2018-02-22T13:24:55Z</time>
      </trkpt>
      <trkpt lat="44.31873" lon="4.79289">
        <ele>140.97</ele>
        <time>2018-02-22T13:25:06Z</time>
      </trkpt>
      <trkpt lat="44.31867" lon="4.79281">
        <ele>138.57</ele>
        <time>2018-02-22T13:25:19Z</time>
      </trkpt>
      <trkpt lat="44.31867" lon="4.79277">
        <ele>138.57</ele>
        <time>2018-02-22T13:25:30Z</time>
      </trkpt>
      <trkpt lat="44.31865" lon="4.79271">
        <ele>138.09</ele>
        <time>2018-02-22T13:25:44Z</time>
      </trkpt>
      <trkpt lat="44.31864" lon="4.79272">
        <ele>137.61</ele>
        <time>2018-02-22T13:25:57Z</time>
      </trkpt>
      <trkpt lat="44.31858" lon="4.79268">
        <ele>136.16</ele>
        <time>2018-02-22T13:26:06Z</time>
      </trkpt>
      <trkpt lat="44.31852" lon="4.79266">
        <ele>135.2</ele>
        <time>2018-02-22T13:26:18Z</time>
      </trkpt>
      <trkpt lat="44.3185" lon="4.79265">
        <ele>134.72</ele>
        <time>2018-02-22T13:26:31Z</time>
      </trkpt>
      <trkpt lat="44.3185" lon="4.79264">
        <ele>134.72</ele>
        <time>2018-02-22T13:26:34Z</time>
      </trkpt>
      <trkpt lat="44.31847" lon="4.79264">
        <ele>133.76</ele>
        <time>2018-02-22T13:26:45Z</time>
      </trkpt>
      <trkpt lat="44.3185" lon="4.79269">
        <ele>133.76</ele>
        <time>2018-02-22T13:26:53Z</time>
      </trkpt>
      <trkpt lat="44.31854" lon="4.79271">
        <ele>133.76</ele>
        <time>2018-02-22T13:26:57Z</time>
      </trkpt>
      <trkpt lat="44.31853" lon="4.79278">
        <ele>132.8</ele>
        <time>2018-02-22T13:27:03Z</time>
      </trkpt>
      <trkpt lat="44.31849" lon="4.7928">
        <ele>132.32</ele>
        <time>2018-02-22T13:27:10Z</time>
      </trkpt>
      <trkpt lat="44.31848" lon="4.79279">
        <ele>132.32</ele>
        <time>2018-02-22T13:27:21Z</time>
      </trkpt>
      <trkpt lat="44.31848" lon="4.79278">
        <ele>132.32</ele>
        <time>2018-02-22T13:27:22Z</time>
      </trkpt>
      <trkpt lat="44.31845" lon="4.79276">
        <ele>131.36</ele>
        <time>2018-02-22T13:27:25Z</time>
      </trkpt>
      <trkpt lat="44.31839" lon="4.79276">
        <ele>129.43</ele>
        <time>2018-02-22T13:27:38Z</time>
      </trkpt>
      <trkpt lat="44.31836" lon="4.79278">
        <ele>128.47</ele>
        <time>2018-02-22T13:27:49Z</time>
      </trkpt>
      <trkpt lat="44.31838" lon="4.79278">
        <ele>128.47</ele>
        <time>2018-02-22T13:28:00Z</time>
      </trkpt>
      <trkpt lat="44.31837" lon="4.79281">
        <ele>128.47</ele>
        <time>2018-02-22T13:28:04Z</time>
      </trkpt>
      <trkpt lat="44.31835" lon="4.79278">
        <ele>128.47</ele>
        <time>2018-02-22T13:28:10Z</time>
      </trkpt>
      <trkpt lat="44.31827" lon="4.79278">
        <ele>127.03</ele>
        <time>2018-02-22T13:28:22Z</time>
      </trkpt>
      <trkpt lat="44.31825" lon="4.79283">
        <ele>125.59</ele>
        <time>2018-02-22T13:28:33Z</time>
      </trkpt>
      <trkpt lat="44.31822" lon="4.79286">
        <ele>124.63</ele>
        <time>2018-02-22T13:28:40Z</time>
      </trkpt>
      <trkpt lat="44.31825" lon="4.79284">
        <ele>124.15</ele>
        <time>2018-02-22T13:28:50Z</time>
      </trkpt>
      <trkpt lat="44.31822" lon="4.79293">
        <ele>122.71</ele>
        <time>2018-02-22T13:29:01Z</time>
      </trkpt>
      <trkpt lat="44.31824" lon="4.79296">
        <ele>122.71</ele>
        <time>2018-02-22T13:29:05Z</time>
      </trkpt>
      <trkpt lat="44.31835" lon="4.79306">
        <ele>123.19</ele>
        <time>2018-02-22T13:29:17Z</time>
      </trkpt>
      <trkpt lat="44.31835" lon="4.79307">
        <ele>123.19</ele>
        <time>2018-02-22T13:29:18Z</time>
      </trkpt>
      <trkpt lat="44.31835" lon="4.79307">
        <ele>123.19</ele>
        <time>2018-02-22T13:29:22Z</time>
      </trkpt>
      <trkpt lat="44.31835" lon="4.79308">
        <ele>123.67</ele>
        <time>2018-02-22T13:29:33Z</time>
      </trkpt>
      <trkpt lat="44.31834" lon="4.79307">
        <ele>124.15</ele>
        <time>2018-02-22T13:29:47Z</time>
      </trkpt>
      <trkpt lat="44.31832" lon="4.79308">
        <ele>122.71</ele>
        <time>2018-02-22T13:29:56Z</time>
      </trkpt>
      <trkpt lat="44.31833" lon="4.79312">
        <ele>123.67</ele>
        <time>2018-02-22T13:30:04Z</time>
      </trkpt>
      <trkpt lat="44.31831" lon="4.79314">
        <ele>120.78</ele>
        <time>2018-02-22T13:30:07Z</time>
      </trkpt>
      <trkpt lat="44.31833" lon="4.79316">
        <ele>120.3</ele>
        <time>2018-02-22T13:30:09Z</time>
      </trkpt>
      <trkpt lat="44.31833" lon="4.79318">
        <ele>120.3</ele>
        <time>2018-02-22T13:30:11Z</time>
      </trkpt>
      <trkpt lat="44.31831" lon="4.79323">
        <ele>120.3</ele>
        <time>2018-02-22T13:30:22Z</time>
      </trkpt>
      <trkpt lat="44.31829" lon="4.79323">
        <ele>119.34</ele>
        <time>2018-02-22T13:30:25Z</time>
      </trkpt>
      <trkpt lat="44.31827" lon="4.79327">
        <ele>118.38</ele>
        <time>2018-02-22T13:30:28Z</time>
      </trkpt>
      <trkpt lat="44.31827" lon="4.7933">
        <ele>118.38</ele>
        <time>2018-02-22T13:30:31Z</time>
      </trkpt>
      <trkpt lat="44.31828" lon="4.79335">
        <ele>116.46</ele>
        <time>2018-02-22T13:30:43Z</time>
      </trkpt>
      <trkpt lat="44.31828" lon="4.79336">
        <ele>115.98</ele>
        <time>2018-02-22T13:30:54Z</time>
      </trkpt>
      <trkpt lat="44.31826" lon="4.79336">
        <ele>117.9</ele>
        <time>2018-02-22T13:31:06Z</time>
      </trkpt>
      <trkpt lat="44.31828" lon="4.79336">
        <ele>116.94</ele>
        <time>2018-02-22T13:31:24Z</time>
      </trkpt>
      <trkpt lat="44.31826" lon="4.79336">
        <ele>116.46</ele>
        <time>2018-02-22T13:31:39Z</time>
      </trkpt>
      <trkpt lat="44.31826" lon="4.79335">
        <ele>116.46</ele>
        <time>2018-02-22T13:31:54Z</time>
      </trkpt>
      <trkpt lat="44.31825" lon="4.79334">
        <ele>116.46</ele>
        <time>2018-02-22T13:32:15Z</time>
      </trkpt>
      <trkpt lat="44.31825" lon="4.79337">
        <ele>116.46</ele>
        <time>2018-02-22T13:32:32Z</time>
      </trkpt>
      <trkpt lat="44.31825" lon="4.79336">
        <ele>115.98</ele>
        <time>2018-02-22T13:32:50Z</time>
      </trkpt>
      <trkpt lat="44.31831" lon="4.79341">
        <ele>115.98</ele>
        <time>2018-02-22T13:33:00Z</time>
      </trkpt>
      <trkpt lat="44.31831" lon="4.79341">
        <ele>115.98</ele>
        <time>2018-02-22T13:33:02Z</time>
      </trkpt>
      <trkpt lat="44.31837" lon="4.79352">
        <ele>115.5</ele>
        <time>2018-02-22T13:33:15Z</time>
      </trkpt>
      <trkpt lat="44.31842" lon="4.79355">
        <ele>114.53</ele>
        <time>2018-02-22T13:33:23Z</time>
      </trkpt>
      <trkpt lat="44.31844" lon="4.79359">
        <ele>114.53</ele>
        <time>2018-02-22T13:33:34Z</time>
      </trkpt>
      <trkpt lat="44.31847" lon="4.79364">
        <ele>112.13</ele>
        <time>2018-02-22T13:33:45Z</time>
      </trkpt>
      <trkpt lat="44.31848" lon="4.79366">
        <ele>109.73</ele>
        <time>2018-02-22T13:33:48Z</time>
      </trkpt>
      <trkpt lat="44.31858" lon="4.7937">
        <ele>109.73</ele>
        <time>2018-02-22T13:33:56Z</time>
      </trkpt>
      <trkpt lat="44.31864" lon="4.7937">
        <ele>112.61</ele>
        <time>2018-02-22T13:34:04Z</time>
      </trkpt>
      <trkpt lat="44.31866" lon="4.79369">
        <ele>113.09</ele>
        <time>2018-02-22T13:34:07Z</time>
      </trkpt>
      <trkpt lat="44.3187" lon="4.79367">
        <ele>113.57</ele>
        <time>2018-02-22T13:34:11Z</time>
      </trkpt>
      <trkpt lat="44.31873" lon="4.79368">
        <ele>112.13</ele>
        <time>2018-02-22T13:34:24Z</time>
      </trkpt>
      <trkpt lat="44.31873" lon="4.79369">
        <ele>115.01</ele>
        <time>2018-02-22T13:34:28Z</time>
      </trkpt>
      <trkpt lat="44.31874" lon="4.79368">
        <ele>112.61</ele>
        <time>2018-02-22T13:34:30Z</time>
      </trkpt>
      <trkpt lat="44.31874" lon="4.7937">
        <ele>112.13</ele>
        <time>2018-02-22T13:34:34Z</time>
      </trkpt>
      <trkpt lat="44.31874" lon="4.7937">
        <ele>112.13</ele>
        <time>2018-02-22T13:34:36Z</time>
      </trkpt>
      <trkpt lat="44.31878" lon="4.79371">
        <ele>110.69</ele>
        <time>2018-02-22T13:34:44Z</time>
      </trkpt>
      <trkpt lat="44.31881" lon="4.79375">
        <ele>110.69</ele>
        <time>2018-02-22T13:34:52Z</time>
      </trkpt>
      <trkpt lat="44.31883" lon="4.79382">
        <ele>109.73</ele>
        <time>2018-02-22T13:35:00Z</time>
      </trkpt>
      <trkpt lat="44.31889" lon="4.79389">
        <ele>108.29</ele>
        <time>2018-02-22T13:35:10Z</time>
      </trkpt>
      <trkpt lat="44.31895" lon="4.79399">
        <ele>107.81</ele>
        <time>2018-02-22T13:35:21Z</time>
      </trkpt>
      <trkpt lat="44.3191" lon="4.79404">
        <ele>106.84</ele>
        <time>2018-02-22T13:35:35Z</time>
      </trkpt>
      <trkpt lat="44.31918" lon="4.79401">
        <ele>108.29</ele>
        <time>2018-02-22T13:35:49Z</time>
      </trkpt>
      <trkpt lat="44.31922" lon="4.79402">
        <ele>108.77</ele>
        <time>2018-02-22T13:36:04Z</time>
      </trkpt>
      <trkpt lat="44.31922" lon="4.794">
        <ele>109.25</ele>
        <time>2018-02-22T13:36:18Z</time>
      </trkpt>
      <trkpt lat="44.31924" lon="4.79397">
        <ele>110.21</ele>
        <time>2018-02-22T13:36:22Z</time>
      </trkpt>
      <trkpt lat="44.31926" lon="4.79396">
        <ele>111.17</ele>
        <time>2018-02-22T13:36:31Z</time>
      </trkpt>
      <trkpt lat="44.31924" lon="4.79397">
        <ele>109.25</ele>
        <time>2018-02-22T13:36:41Z</time>
      </trkpt>
      <trkpt lat="44.31922" lon="4.79402">
        <ele>108.29</ele>
        <time>2018-02-22T13:36:53Z</time>
      </trkpt>
      <trkpt lat="44.31924" lon="4.79404">
        <ele>106.36</ele>
        <time>2018-02-22T13:37:04Z</time>
      </trkpt>
      <trkpt lat="44.31926" lon="4.79406">
        <ele>106.36</ele>
        <time>2018-02-22T13:37:07Z</time>
      </trkpt>
      <trkpt lat="44.31936" lon="4.7941">
        <ele>106.36</ele>
        <time>2018-02-22T13:37:18Z</time>
      </trkpt>
      <trkpt lat="44.31946" lon="4.79411">
        <ele>107.32</ele>
        <time>2018-02-22T13:37:32Z</time>
      </trkpt>
      <trkpt lat="44.31955" lon="4.79413">
        <ele>106.36</ele>
        <time>2018-02-22T13:37:42Z</time>
      </trkpt>
      <trkpt lat="44.31956" lon="4.79413">
        <ele>108.29</ele>
        <time>2018-02-22T13:37:44Z</time>
      </trkpt>
      <trkpt lat="44.31957" lon="4.79414">
        <ele>106.36</ele>
        <time>2018-02-22T13:37:46Z</time>
      </trkpt>
      <trkpt lat="44.31959" lon="4.79416">
        <ele>105.4</ele>
        <time>2018-02-22T13:37:48Z</time>
      </trkpt>
      <trkpt lat="44.31964" lon="4.79418">
        <ele>104.92</ele>
        <time>2018-02-22T13:37:55Z</time>
      </trkpt>
      <trkpt lat="44.31967" lon="4.79419">
        <ele>106.36</ele>
        <time>2018-02-22T13:37:59Z</time>
      </trkpt>
      <trkpt lat="44.31972" lon="4.79422">
        <ele>106.84</ele>
        <time>2018-02-22T13:38:04Z</time>
      </trkpt>
      <trkpt lat="44.31984" lon="4.79425">
        <ele>105.4</ele>
        <time>2018-02-22T13:38:17Z</time>
      </trkpt>
      <trkpt lat="44.31997" lon="4.7943">
        <ele>106.36</ele>
        <time>2018-02-22T13:38:32Z</time>
      </trkpt>
      <trkpt lat="44.32" lon="4.79431">
        <ele>105.4</ele>
        <time>2018-02-22T13:38:36Z</time>
      </trkpt>
      <trkpt lat="44.32005" lon="4.79434">
        <ele>104.92</ele>
        <time>2018-02-22T13:38:50Z</time>
      </trkpt>
      <trkpt lat="44.32007" lon="4.79434">
        <ele>104.92</ele>
        <time>2018-02-22T13:38:54Z</time>
      </trkpt>
      <trkpt lat="44.32008" lon="4.79435">
        <ele>104.44</ele>
        <time>2018-02-22T13:38:58Z</time>
      </trkpt>
      <trkpt lat="44.32013" lon="4.79433">
        <ele>103.96</ele>
        <time>2018-02-22T13:39:03Z</time>
      </trkpt>
      <trkpt lat="44.32016" lon="4.7943">
        <ele>103.96</ele>
        <time>2018-02-22T13:39:08Z</time>
      </trkpt>
      <trkpt lat="44.32024" lon="4.79421">
        <ele>104.92</ele>
        <time>2018-02-22T13:39:22Z</time>
      </trkpt>
      <trkpt lat="44.32025" lon="4.79419">
        <ele>104.92</ele>
        <time>2018-02-22T13:39:25Z</time>
      </trkpt>
      <trkpt lat="44.32027" lon="4.79415">
        <ele>104.92</ele>
        <time>2018-02-22T13:39:28Z</time>
      </trkpt>
      <trkpt lat="44.32036" lon="4.79405">
        <ele>105.4</ele>
        <time>2018-02-22T13:39:42Z</time>
      </trkpt>
      <trkpt lat="44.32044" lon="4.79402">
        <ele>107.32</ele>
        <time>2018-02-22T13:39:53Z</time>
      </trkpt>
      <trkpt lat="44.3205" lon="4.794">
        <ele>107.32</ele>
        <time>2018-02-22T13:40:07Z</time>
      </trkpt>
      <trkpt lat="44.32054" lon="4.79396">
        <ele>107.32</ele>
        <time>2018-02-22T13:40:19Z</time>
      </trkpt>
      <trkpt lat="44.32054" lon="4.79396">
        <ele>107.81</ele>
        <time>2018-02-22T13:40:23Z</time>
      </trkpt>
      <trkpt lat="44.32058" lon="4.79392">
        <ele>108.77</ele>
        <time>2018-02-22T13:40:27Z</time>
      </trkpt>
      <trkpt lat="44.3206" lon="4.7939">
        <ele>109.73</ele>
        <time>2018-02-22T13:40:31Z</time>
      </trkpt>
      <trkpt lat="44.3206" lon="4.79385">
        <ele>110.69</ele>
        <time>2018-02-22T13:40:40Z</time>
      </trkpt>
      <trkpt lat="44.32061" lon="4.79383">
        <ele>112.13</ele>
        <time>2018-02-22T13:40:43Z</time>
      </trkpt>
      <trkpt lat="44.32062" lon="4.79381">
        <ele>113.09</ele>
        <time>2018-02-22T13:40:46Z</time>
      </trkpt>
      <trkpt lat="44.32064" lon="4.79372">
        <ele>114.05</ele>
        <time>2018-02-22T13:40:54Z</time>
      </trkpt>
      <trkpt lat="44.3207" lon="4.79362">
        <ele>115.5</ele>
        <time>2018-02-22T13:41:05Z</time>
      </trkpt>
      <trkpt lat="44.32074" lon="4.79361">
        <ele>115.5</ele>
        <time>2018-02-22T13:41:09Z</time>
      </trkpt>
      <trkpt lat="44.32081" lon="4.79351">
        <ele>116.46</ele>
        <time>2018-02-22T13:41:21Z</time>
      </trkpt>
      <trkpt lat="44.32083" lon="4.79346">
        <ele>117.42</ele>
        <time>2018-02-22T13:41:29Z</time>
      </trkpt>
      <trkpt lat="44.32085" lon="4.79333">
        <ele>119.34</ele>
        <time>2018-02-22T13:41:40Z</time>
      </trkpt>
      <trkpt lat="44.32087" lon="4.79333">
        <ele>119.34</ele>
        <time>2018-02-22T13:41:45Z</time>
      </trkpt>
      <trkpt lat="44.32095" lon="4.79332">
        <ele>119.82</ele>
        <time>2018-02-22T13:41:55Z</time>
      </trkpt>
      <trkpt lat="44.32098" lon="4.79332">
        <ele>120.78</ele>
        <time>2018-02-22T13:42:05Z</time>
      </trkpt>
      <trkpt lat="44.3211" lon="4.79333">
        <ele>122.22</ele>
        <time>2018-02-22T13:42:19Z</time>
      </trkpt>
      <trkpt lat="44.32112" lon="4.79332">
        <ele>122.22</ele>
        <time>2018-02-22T13:42:21Z</time>
      </trkpt>
      <trkpt lat="44.32116" lon="4.79332">
        <ele>122.71</ele>
        <time>2018-02-22T13:42:25Z</time>
      </trkpt>
      <trkpt lat="44.32128" lon="4.79333">
        <ele>123.67</ele>
        <time>2018-02-22T13:42:37Z</time>
      </trkpt>
      <trkpt lat="44.32128" lon="4.79333">
        <ele>123.67</ele>
        <time>2018-02-22T13:42:38Z</time>
      </trkpt>
      <trkpt lat="44.32134" lon="4.79334">
        <ele>123.67</ele>
        <time>2018-02-22T13:42:46Z</time>
      </trkpt>
      <trkpt lat="44.32137" lon="4.79334">
        <ele>124.15</ele>
        <time>2018-02-22T13:42:50Z</time>
      </trkpt>
      <trkpt lat="44.32145" lon="4.79333">
        <ele>126.55</ele>
        <time>2018-02-22T13:43:01Z</time>
      </trkpt>
      <trkpt lat="44.32153" lon="4.79335">
        <ele>126.55</ele>
        <time>2018-02-22T13:43:10Z</time>
      </trkpt>
      <trkpt lat="44.32164" lon="4.79337">
        <ele>128.47</ele>
        <time>2018-02-22T13:43:23Z</time>
      </trkpt>
      <trkpt lat="44.32172" lon="4.79342">
        <ele>129.43</ele>
        <time>2018-02-22T13:43:35Z</time>
      </trkpt>
      <trkpt lat="44.32176" lon="4.79343">
        <ele>130.4</ele>
        <time>2018-02-22T13:43:41Z</time>
      </trkpt>
      <trkpt lat="44.32185" lon="4.79347">
        <ele>130.88</ele>
        <time>2018-02-22T13:43:51Z</time>
      </trkpt>
      <trkpt lat="44.32198" lon="4.7935">
        <ele>132.32</ele>
        <time>2018-02-22T13:44:04Z</time>
      </trkpt>
      <trkpt lat="44.32201" lon="4.79351">
        <ele>133.28</ele>
        <time>2018-02-22T13:44:07Z</time>
      </trkpt>
      <trkpt lat="44.32204" lon="4.79354">
        <ele>134.24</ele>
        <time>2018-02-22T13:44:12Z</time>
      </trkpt>
      <trkpt lat="44.32219" lon="4.79358">
        <ele>134.72</ele>
        <time>2018-02-22T13:44:25Z</time>
      </trkpt>
      <trkpt lat="44.32227" lon="4.79366">
        <ele>135.68</ele>
        <time>2018-02-22T13:44:35Z</time>
      </trkpt>
      <trkpt lat="44.32227" lon="4.79366">
        <ele>135.68</ele>
        <time>2018-02-22T13:44:36Z</time>
      </trkpt>
      <trkpt lat="44.32231" lon="4.79372">
        <ele>137.61</ele>
        <time>2018-02-22T13:44:43Z</time>
      </trkpt>
      <trkpt lat="44.32235" lon="4.79375">
        <ele>138.09</ele>
        <time>2018-02-22T13:44:49Z</time>
      </trkpt>
      <trkpt lat="44.32239" lon="4.79378">
        <ele>139.05</ele>
        <time>2018-02-22T13:45:01Z</time>
      </trkpt>
      <trkpt lat="44.32243" lon="4.79383">
        <ele>139.05</ele>
        <time>2018-02-22T13:45:20Z</time>
      </trkpt>
      <trkpt lat="44.32242" lon="4.79383">
        <ele>139.05</ele>
        <time>2018-02-22T13:45:34Z</time>
      </trkpt>
      <trkpt lat="44.32243" lon="4.79382">
        <ele>139.05</ele>
        <time>2018-02-22T13:45:48Z</time>
      </trkpt>
      <trkpt lat="44.32243" lon="4.79382">
        <ele>137.61</ele>
        <time>2018-02-22T13:46:08Z</time>
      </trkpt>
      <trkpt lat="44.32244" lon="4.79381">
        <ele>137.61</ele>
        <time>2018-02-22T13:46:26Z</time>
      </trkpt>
      <trkpt lat="44.32244" lon="4.79381">
        <ele>139.53</ele>
        <time>2018-02-22T13:46:39Z</time>
      </trkpt>
      <trkpt lat="44.32243" lon="4.7938">
        <ele>139.05</ele>
        <time>2018-02-22T13:46:54Z</time>
      </trkpt>
      <trkpt lat="44.32243" lon="4.79381">
        <ele>139.05</ele>
        <time>2018-02-22T13:47:12Z</time>
      </trkpt>
      <trkpt lat="44.32242" lon="4.7938">
        <ele>139.05</ele>
        <time>2018-02-22T13:47:28Z</time>
      </trkpt>
      <trkpt lat="44.32242" lon="4.79381">
        <ele>138.09</ele>
        <time>2018-02-22T13:47:43Z</time>
      </trkpt>
      <trkpt lat="44.32241" lon="4.7938">
        <ele>137.61</ele>
        <time>2018-02-22T13:48:01Z</time>
      </trkpt>
      <trkpt lat="44.32243" lon="4.7938">
        <ele>137.61</ele>
        <time>2018-02-22T13:48:15Z</time>
      </trkpt>
      <trkpt lat="44.32242" lon="4.79381">
        <ele>137.61</ele>
        <time>2018-02-22T13:48:31Z</time>
      </trkpt>
      <trkpt lat="44.32244" lon="4.79384">
        <ele>139.05</ele>
        <time>2018-02-22T13:48:38Z</time>
      </trkpt>
      <trkpt lat="44.3225" lon="4.7939">
        <ele>140.01</ele>
        <time>2018-02-22T13:48:48Z</time>
      </trkpt>
      <trkpt lat="44.32253" lon="4.79394">
        <ele>140.97</ele>
        <time>2018-02-22T13:48:52Z</time>
      </trkpt>
      <trkpt lat="44.32255" lon="4.79399">
        <ele>140.97</ele>
        <time>2018-02-22T13:48:56Z</time>
      </trkpt>
      <trkpt lat="44.32257" lon="4.79402">
        <ele>141.93</ele>
        <time>2018-02-22T13:49:00Z</time>
      </trkpt>
      <trkpt lat="44.32257" lon="4.79406">
        <ele>142.41</ele>
        <time>2018-02-22T13:49:05Z</time>
      </trkpt>
      <trkpt lat="44.32259" lon="4.79412">
        <ele>142.89</ele>
        <time>2018-02-22T13:49:10Z</time>
      </trkpt>
      <trkpt lat="44.3226" lon="4.79417">
        <ele>144.34</ele>
        <time>2018-02-22T13:49:14Z</time>
      </trkpt>
      <trkpt lat="44.32262" lon="4.79427">
        <ele>145.3</ele>
        <time>2018-02-22T13:49:24Z</time>
      </trkpt>
      <trkpt lat="44.32265" lon="4.79434">
        <ele>145.78</ele>
        <time>2018-02-22T13:49:29Z</time>
      </trkpt>
      <trkpt lat="44.32273" lon="4.79447">
        <ele>146.26</ele>
        <time>2018-02-22T13:49:41Z</time>
      </trkpt>
      <trkpt lat="44.32281" lon="4.79457">
        <ele>147.22</ele>
        <time>2018-02-22T13:49:53Z</time>
      </trkpt>
      <trkpt lat="44.32284" lon="4.79459">
        <ele>148.66</ele>
        <time>2018-02-22T13:50:00Z</time>
      </trkpt>
      <trkpt lat="44.32287" lon="4.79462">
        <ele>149.14</ele>
        <time>2018-02-22T13:50:06Z</time>
      </trkpt>
      <trkpt lat="44.32291" lon="4.7947">
        <ele>149.62</ele>
        <time>2018-02-22T13:50:16Z</time>
      </trkpt>
      <trkpt lat="44.32295" lon="4.7948">
        <ele>150.1</ele>
        <time>2018-02-22T13:50:28Z</time>
      </trkpt>
      <trkpt lat="44.323" lon="4.79495">
        <ele>151.06</ele>
        <time>2018-02-22T13:50:43Z</time>
      </trkpt>
      <trkpt lat="44.32299" lon="4.79496">
        <ele>151.06</ele>
        <time>2018-02-22T13:50:45Z</time>
      </trkpt>
      <trkpt lat="44.32301" lon="4.79504">
        <ele>152.03</ele>
        <time>2018-02-22T13:50:54Z</time>
      </trkpt>
      <trkpt lat="44.32305" lon="4.7952">
        <ele>152.99</ele>
        <time>2018-02-22T13:51:07Z</time>
      </trkpt>
      <trkpt lat="44.32306" lon="4.79532">
        <ele>153.47</ele>
        <time>2018-02-22T13:51:17Z</time>
      </trkpt>
      <trkpt lat="44.32307" lon="4.79541">
        <ele>153.47</ele>
        <time>2018-02-22T13:51:24Z</time>
      </trkpt>
      <trkpt lat="44.3231" lon="4.79551">
        <ele>153.95</ele>
        <time>2018-02-22T13:51:38Z</time>
      </trkpt>
      <trkpt lat="44.32309" lon="4.7955">
        <ele>154.43</ele>
        <time>2018-02-22T13:52:00Z</time>
      </trkpt>
      <trkpt lat="44.3231" lon="4.79551">
        <ele>154.43</ele>
        <time>2018-02-22T13:52:21Z</time>
      </trkpt>
      <trkpt lat="44.3231" lon="4.7955">
        <ele>153.47</ele>
        <time>2018-02-22T13:52:37Z</time>
      </trkpt>
      <trkpt lat="44.32311" lon="4.7955">
        <ele>156.83</ele>
        <time>2018-02-22T13:52:41Z</time>
      </trkpt>
      <trkpt lat="44.32311" lon="4.7955">
        <ele>156.83</ele>
        <time>2018-02-22T13:52:42Z</time>
      </trkpt>
      <trkpt lat="44.32311" lon="4.79551">
        <ele>153.95</ele>
        <time>2018-02-22T13:52:49Z</time>
      </trkpt>
      <trkpt lat="44.32311" lon="4.79551">
        <ele>155.39</ele>
        <time>2018-02-22T13:52:55Z</time>
      </trkpt>
      <trkpt lat="44.32311" lon="4.79551">
        <ele>154.43</ele>
        <time>2018-02-22T13:52:58Z</time>
      </trkpt>
      <trkpt lat="44.32311" lon="4.79551">
        <ele>153.95</ele>
        <time>2018-02-22T13:53:23Z</time>
      </trkpt>
      <trkpt lat="44.32311" lon="4.79551">
        <ele>154.43</ele>
        <time>2018-02-22T13:53:46Z</time>
      </trkpt>
      <trkpt lat="44.32311" lon="4.7955">
        <ele>154.43</ele>
        <time>2018-02-22T13:54:10Z</time>
      </trkpt>
      <trkpt lat="44.3231" lon="4.79551">
        <ele>153.95</ele>
        <time>2018-02-22T13:54:41Z</time>
      </trkpt>
      <trkpt lat="44.32314" lon="4.79556">
        <ele>153.95</ele>
        <time>2018-02-22T13:54:59Z</time>
      </trkpt>
      <trkpt lat="44.32315" lon="4.79567">
        <ele>153.47</ele>
        <time>2018-02-22T13:55:09Z</time>
      </trkpt>
      <trkpt lat="44.32316" lon="4.79567">
        <ele>153.47</ele>
        <time>2018-02-22T13:55:10Z</time>
      </trkpt>
      <trkpt lat="44.3232" lon="4.79581">
        <ele>155.87</ele>
        <time>2018-02-22T13:55:20Z</time>
      </trkpt>
      <trkpt lat="44.32324" lon="4.79586">
        <ele>156.35</ele>
        <time>2018-02-22T13:55:27Z</time>
      </trkpt>
      <trkpt lat="44.32327" lon="4.79591">
        <ele>157.31</ele>
        <time>2018-02-22T13:55:33Z</time>
      </trkpt>
      <trkpt lat="44.32329" lon="4.79594">
        <ele>157.31</ele>
        <time>2018-02-22T13:55:38Z</time>
      </trkpt>
      <trkpt lat="44.32338" lon="4.79599">
        <ele>157.79</ele>
        <time>2018-02-22T13:55:49Z</time>
      </trkpt>
      <trkpt lat="44.32347" lon="4.79603">
        <ele>159.24</ele>
        <time>2018-02-22T13:56:01Z</time>
      </trkpt>
      <trkpt lat="44.32355" lon="4.79603">
        <ele>159.72</ele>
        <time>2018-02-22T13:56:09Z</time>
      </trkpt>
      <trkpt lat="44.32359" lon="4.79603">
        <ele>160.2</ele>
        <time>2018-02-22T13:56:12Z</time>
      </trkpt>
      <trkpt lat="44.32362" lon="4.79603">
        <ele>159.72</ele>
        <time>2018-02-22T13:56:16Z</time>
      </trkpt>
      <trkpt lat="44.32371" lon="4.79603">
        <ele>161.64</ele>
        <time>2018-02-22T13:56:26Z</time>
      </trkpt>
      <trkpt lat="44.32379" lon="4.79604">
        <ele>161.64</ele>
        <time>2018-02-22T13:56:35Z</time>
      </trkpt>
      <trkpt lat="44.32381" lon="4.79604">
        <ele>161.64</ele>
        <time>2018-02-22T13:56:37Z</time>
      </trkpt>
      <trkpt lat="44.32394" lon="4.79605">
        <ele>163.08</ele>
        <time>2018-02-22T13:56:49Z</time>
      </trkpt>
      <trkpt lat="44.32405" lon="4.79604">
        <ele>163.08</ele>
        <time>2018-02-22T13:57:00Z</time>
      </trkpt>
      <trkpt lat="44.32414" lon="4.79598">
        <ele>164.04</ele>
        <time>2018-02-22T13:57:11Z</time>
      </trkpt>
      <trkpt lat="44.32422" lon="4.79591">
        <ele>165.96</ele>
        <time>2018-02-22T13:57:22Z</time>
      </trkpt>
      <trkpt lat="44.3243" lon="4.79582">
        <ele>167.41</ele>
        <time>2018-02-22T13:57:35Z</time>
      </trkpt>
      <trkpt lat="44.32442" lon="4.79569">
        <ele>169.33</ele>
        <time>2018-02-22T13:57:49Z</time>
      </trkpt>
      <trkpt lat="44.32452" lon="4.79561">
        <ele>170.29</ele>
        <time>2018-02-22T13:58:04Z</time>
      </trkpt>
      <trkpt lat="44.32454" lon="4.7956">
        <ele>170.29</ele>
        <time>2018-02-22T13:58:20Z</time>
      </trkpt>
      <trkpt lat="44.32457" lon="4.79558">
        <ele>170.29</ele>
        <time>2018-02-22T13:58:28Z</time>
      </trkpt>
      <trkpt lat="44.3246" lon="4.79558">
        <ele>170.77</ele>
        <time>2018-02-22T13:58:31Z</time>
      </trkpt>
      <trkpt lat="44.32466" lon="4.79557">
        <ele>171.25</ele>
        <time>2018-02-22T13:58:38Z</time>
      </trkpt>
      <trkpt lat="44.32469" lon="4.79556">
        <ele>171.25</ele>
        <time>2018-02-22T13:58:42Z</time>
      </trkpt>
      <trkpt lat="44.32478" lon="4.79555">
        <ele>171.25</ele>
        <time>2018-02-22T13:58:53Z</time>
      </trkpt>
      <trkpt lat="44.32479" lon="4.79554">
        <ele>171.25</ele>
        <time>2018-02-22T13:58:55Z</time>
      </trkpt>
      <trkpt lat="44.32483" lon="4.79554">
        <ele>171.73</ele>
        <time>2018-02-22T13:59:01Z</time>
      </trkpt>
      <trkpt lat="44.32486" lon="4.79552">
        <ele>170.29</ele>
        <time>2018-02-22T13:59:04Z</time>
      </trkpt>
      <trkpt lat="44.3249" lon="4.79553">
        <ele>171.73</ele>
        <time>2018-02-22T13:59:09Z</time>
      </trkpt>
      <trkpt lat="44.32502" lon="4.79551">
        <ele>171.73</ele>
        <time>2018-02-22T13:59:21Z</time>
      </trkpt>
      <trkpt lat="44.32515" lon="4.79546">
        <ele>172.69</ele>
        <time>2018-02-22T13:59:31Z</time>
      </trkpt>
      <trkpt lat="44.32517" lon="4.79547">
        <ele>172.69</ele>
        <time>2018-02-22T13:59:34Z</time>
      </trkpt>
      <trkpt lat="44.3253" lon="4.79549">
        <ele>173.66</ele>
        <time>2018-02-22T13:59:48Z</time>
      </trkpt>
      <trkpt lat="44.32531" lon="4.7955">
        <ele>173.66</ele>
        <time>2018-02-22T13:59:50Z</time>
      </trkpt>
      <trkpt lat="44.32536" lon="4.79553">
        <ele>174.62</ele>
        <time>2018-02-22T13:59:57Z</time>
      </trkpt>
      <trkpt lat="44.32538" lon="4.79553">
        <ele>173.66</ele>
        <time>2018-02-22T13:59:59Z</time>
      </trkpt>
      <trkpt lat="44.3254" lon="4.79554">
        <ele>173.17</ele>
        <time>2018-02-22T14:00:04Z</time>
      </trkpt>
      <trkpt lat="44.32541" lon="4.79554">
        <ele>172.69</ele>
        <time>2018-02-22T14:00:07Z</time>
      </trkpt>
      <trkpt lat="44.32544" lon="4.79552">
        <ele>172.69</ele>
        <time>2018-02-22T14:00:12Z</time>
      </trkpt>
      <trkpt lat="44.32546" lon="4.79553">
        <ele>171.25</ele>
        <time>2018-02-22T14:00:15Z</time>
      </trkpt>
      <trkpt lat="44.32547" lon="4.79552">
        <ele>173.17</ele>
        <time>2018-02-22T14:00:19Z</time>
      </trkpt>
      <trkpt lat="44.32549" lon="4.79553">
        <ele>173.17</ele>
        <time>2018-02-22T14:00:31Z</time>
      </trkpt>
      <trkpt lat="44.32552" lon="4.79556">
        <ele>173.66</ele>
        <time>2018-02-22T14:00:42Z</time>
      </trkpt>
      <trkpt lat="44.32553" lon="4.79557">
        <ele>173.66</ele>
        <time>2018-02-22T14:00:44Z</time>
      </trkpt>
      <trkpt lat="44.32556" lon="4.79558">
        <ele>173.66</ele>
        <time>2018-02-22T14:00:48Z</time>
      </trkpt>
      <trkpt lat="44.3256" lon="4.79559">
        <ele>173.66</ele>
        <time>2018-02-22T14:00:55Z</time>
      </trkpt>
      <trkpt lat="44.32562" lon="4.79558">
        <ele>173.66</ele>
        <time>2018-02-22T14:00:57Z</time>
      </trkpt>
      <trkpt lat="44.32572" lon="4.79555">
        <ele>173.66</ele>
        <time>2018-02-22T14:01:07Z</time>
      </trkpt>
      <trkpt lat="44.32574" lon="4.79554">
        <ele>173.66</ele>
        <time>2018-02-22T14:01:10Z</time>
      </trkpt>
      <trkpt lat="44.32578" lon="4.79553">
        <ele>172.21</ele>
        <time>2018-02-22T14:01:13Z</time>
      </trkpt>
      <trkpt lat="44.32586" lon="4.79549">
        <ele>173.66</ele>
        <time>2018-02-22T14:01:22Z</time>
      </trkpt>
      <trkpt lat="44.32601" lon="4.79544">
        <ele>174.62</ele>
        <time>2018-02-22T14:01:36Z</time>
      </trkpt>
      <trkpt lat="44.32606" lon="4.79546">
        <ele>175.1</ele>
        <time>2018-02-22T14:01:43Z</time>
      </trkpt>
      <trkpt lat="44.32612" lon="4.79543">
        <ele>175.1</ele>
        <time>2018-02-22T14:01:51Z</time>
      </trkpt>
      <trkpt lat="44.32616" lon="4.79544">
        <ele>175.1</ele>
        <time>2018-02-22T14:01:54Z</time>
      </trkpt>
      <trkpt lat="44.32629" lon="4.7954">
        <ele>175.1</ele>
        <time>2018-02-22T14:02:07Z</time>
      </trkpt>
      <trkpt lat="44.32642" lon="4.79539">
        <ele>175.1</ele>
        <time>2018-02-22T14:02:21Z</time>
      </trkpt>
      <trkpt lat="44.32644" lon="4.79539">
        <ele>175.1</ele>
        <time>2018-02-22T14:02:24Z</time>
      </trkpt>
      <trkpt lat="44.32657" lon="4.79535">
        <ele>176.06</ele>
        <time>2018-02-22T14:02:34Z</time>
      </trkpt>
      <trkpt lat="44.32672" lon="4.79533">
        <ele>176.06</ele>
        <time>2018-02-22T14:02:48Z</time>
      </trkpt>
      <trkpt lat="44.32688" lon="4.79531">
        <ele>176.54</ele>
        <time>2018-02-22T14:03:01Z</time>
      </trkpt>
      <trkpt lat="44.3269" lon="4.7953">
        <ele>176.54</ele>
        <time>2018-02-22T14:03:03Z</time>
      </trkpt>
      <trkpt lat="44.32697" lon="4.79527">
        <ele>175.1</ele>
        <time>2018-02-22T14:03:08Z</time>
      </trkpt>
      <trkpt lat="44.32701" lon="4.79527">
        <ele>176.54</ele>
        <time>2018-02-22T14:03:13Z</time>
      </trkpt>
      <trkpt lat="44.32716" lon="4.79522">
        <ele>177.02</ele>
        <time>2018-02-22T14:03:30Z</time>
      </trkpt>
      <trkpt lat="44.32732" lon="4.79515">
        <ele>177.02</ele>
        <time>2018-02-22T14:03:42Z</time>
      </trkpt>
      <trkpt lat="44.32744" lon="4.79513">
        <ele>176.54</ele>
        <time>2018-02-22T14:03:56Z</time>
      </trkpt>
      <trkpt lat="44.32757" lon="4.79511">
        <ele>177.02</ele>
        <time>2018-02-22T14:04:08Z</time>
      </trkpt>
      <trkpt lat="44.32768" lon="4.7951">
        <ele>177.02</ele>
        <time>2018-02-22T14:04:16Z</time>
      </trkpt>
      <trkpt lat="44.32777" lon="4.7951">
        <ele>177.02</ele>
        <time>2018-02-22T14:04:26Z</time>
      </trkpt>
      <trkpt lat="44.32779" lon="4.7951">
        <ele>177.02</ele>
        <time>2018-02-22T14:04:27Z</time>
      </trkpt>
      <trkpt lat="44.3278" lon="4.79509">
        <ele>177.02</ele>
        <time>2018-02-22T14:04:28Z</time>
      </trkpt>
      <trkpt lat="44.32781" lon="4.79509">
        <ele>177.02</ele>
        <time>2018-02-22T14:04:29Z</time>
      </trkpt>
      <trkpt lat="44.32782" lon="4.79509">
        <ele>177.02</ele>
        <time>2018-02-22T14:04:30Z</time>
      </trkpt>
      <trkpt lat="44.32784" lon="4.79509">
        <ele>177.02</ele>
        <time>2018-02-22T14:04:31Z</time>
      </trkpt>
      <trkpt lat="44.32786" lon="4.79508">
        <ele>177.02</ele>
        <time>2018-02-22T14:04:32Z</time>
      </trkpt>
      <trkpt lat="44.32809" lon="4.79508">
        <ele>177.02</ele>
        <time>2018-02-22T14:04:47Z</time>
      </trkpt>
      <trkpt lat="44.32816" lon="4.79504">
        <ele>177.02</ele>
        <time>2018-02-22T14:05:00Z</time>
      </trkpt>
      <trkpt lat="44.32817" lon="4.79504">
        <ele>177.02</ele>
        <time>2018-02-22T14:05:01Z</time>
      </trkpt>
      <trkpt lat="44.32818" lon="4.79503">
        <ele>177.02</ele>
        <time>2018-02-22T14:05:02Z</time>
      </trkpt>
      <trkpt lat="44.32819" lon="4.79502">
        <ele>177.02</ele>
        <time>2018-02-22T14:05:03Z</time>
      </trkpt>
      <trkpt lat="44.32821" lon="4.795">
        <ele>177.02</ele>
        <time>2018-02-22T14:05:04Z</time>
      </trkpt>
      <trkpt lat="44.32837" lon="4.79496">
        <ele>177.02</ele>
        <time>2018-02-22T14:05:17Z</time>
      </trkpt>
      <trkpt lat="44.32843" lon="4.79499">
        <ele>175.58</ele>
        <time>2018-02-22T14:05:27Z</time>
      </trkpt>
      <trkpt lat="44.32844" lon="4.79499">
        <ele>175.58</ele>
        <time>2018-02-22T14:05:28Z</time>
      </trkpt>
      <trkpt lat="44.32845" lon="4.795">
        <ele>175.58</ele>
        <time>2018-02-22T14:05:29Z</time>
      </trkpt>
      <trkpt lat="44.32847" lon="4.795">
        <ele>175.58</ele>
        <time>2018-02-22T14:05:30Z</time>
      </trkpt>
      <trkpt lat="44.32848" lon="4.79501">
        <ele>175.58</ele>
        <time>2018-02-22T14:05:31Z</time>
      </trkpt>
      <trkpt lat="44.3285" lon="4.79501">
        <ele>175.58</ele>
        <time>2018-02-22T14:05:32Z</time>
      </trkpt>
      <trkpt lat="44.32851" lon="4.79502">
        <ele>175.58</ele>
        <time>2018-02-22T14:05:33Z</time>
      </trkpt>
      <trkpt lat="44.32853" lon="4.79503">
        <ele>175.58</ele>
        <time>2018-02-22T14:05:34Z</time>
      </trkpt>
      <trkpt lat="44.32861" lon="4.79512">
        <ele>175.1</ele>
        <time>2018-02-22T14:05:46Z</time>
      </trkpt>
      <trkpt lat="44.32859" lon="4.79517">
        <ele>175.1</ele>
        <time>2018-02-22T14:05:58Z</time>
      </trkpt>
      <trkpt lat="44.3286" lon="4.79516">
        <ele>176.06</ele>
        <time>2018-02-22T14:06:13Z</time>
      </trkpt>
      <trkpt lat="44.32861" lon="4.79515">
        <ele>175.1</ele>
        <time>2018-02-22T14:06:30Z</time>
      </trkpt>
      <trkpt lat="44.32861" lon="4.79515">
        <ele>175.1</ele>
        <time>2018-02-22T14:06:46Z</time>
      </trkpt>
      <trkpt lat="44.32862" lon="4.79515">
        <ele>176.54</ele>
        <time>2018-02-22T14:07:07Z</time>
      </trkpt>
      <trkpt lat="44.32861" lon="4.79517">
        <ele>174.62</ele>
        <time>2018-02-22T14:07:32Z</time>
      </trkpt>
      <trkpt lat="44.32861" lon="4.79517">
        <ele>176.06</ele>
        <time>2018-02-22T14:07:38Z</time>
      </trkpt>
      <trkpt lat="44.32861" lon="4.79517">
        <ele>174.62</ele>
        <time>2018-02-22T14:07:52Z</time>
      </trkpt>
      <trkpt lat="44.32861" lon="4.79518">
        <ele>175.58</ele>
        <time>2018-02-22T14:08:14Z</time>
      </trkpt>
      <trkpt lat="44.3286" lon="4.79519">
        <ele>175.58</ele>
        <time>2018-02-22T14:08:27Z</time>
      </trkpt>
      <trkpt lat="44.32855" lon="4.79531">
        <ele>173.66</ele>
        <time>2018-02-22T14:08:37Z</time>
      </trkpt>
      <trkpt lat="44.32853" lon="4.79538">
        <ele>173.66</ele>
        <time>2018-02-22T14:08:42Z</time>
      </trkpt>
      <trkpt lat="44.32844" lon="4.79554">
        <ele>175.1</ele>
        <time>2018-02-22T14:08:56Z</time>
      </trkpt>
      <trkpt lat="44.32839" lon="4.79567">
        <ele>173.17</ele>
        <time>2018-02-22T14:09:03Z</time>
      </trkpt>
      <trkpt lat="44.32828" lon="4.79585">
        <ele>173.17</ele>
        <time>2018-02-22T14:09:15Z</time>
      </trkpt>
      <trkpt lat="44.3282" lon="4.79597">
        <ele>172.21</ele>
        <time>2018-02-22T14:09:26Z</time>
      </trkpt>
      <trkpt lat="44.32817" lon="4.79602">
        <ele>171.73</ele>
        <time>2018-02-22T14:09:34Z</time>
      </trkpt>
      <trkpt lat="44.32816" lon="4.79604">
        <ele>171.73</ele>
        <time>2018-02-22T14:09:35Z</time>
      </trkpt>
      <trkpt lat="44.32806" lon="4.79617">
        <ele>170.77</ele>
        <time>2018-02-22T14:09:48Z</time>
      </trkpt>
      <trkpt lat="44.32805" lon="4.79619">
        <ele>170.77</ele>
        <time>2018-02-22T14:09:51Z</time>
      </trkpt>
      <trkpt lat="44.32804" lon="4.79621">
        <ele>170.77</ele>
        <time>2018-02-22T14:09:52Z</time>
      </trkpt>
      <trkpt lat="44.32803" lon="4.79623">
        <ele>170.77</ele>
        <time>2018-02-22T14:09:53Z</time>
      </trkpt>
      <trkpt lat="44.32802" lon="4.79624">
        <ele>170.29</ele>
        <time>2018-02-22T14:09:54Z</time>
      </trkpt>
      <trkpt lat="44.32802" lon="4.79626">
        <ele>170.29</ele>
        <time>2018-02-22T14:09:55Z</time>
      </trkpt>
      <trkpt lat="44.32801" lon="4.79628">
        <ele>170.29</ele>
        <time>2018-02-22T14:09:56Z</time>
      </trkpt>
      <trkpt lat="44.328" lon="4.7963">
        <ele>169.81</ele>
        <time>2018-02-22T14:09:57Z</time>
      </trkpt>
      <trkpt lat="44.32799" lon="4.79631">
        <ele>169.81</ele>
        <time>2018-02-22T14:09:58Z</time>
      </trkpt>
      <trkpt lat="44.32798" lon="4.79633">
        <ele>169.81</ele>
        <time>2018-02-22T14:09:59Z</time>
      </trkpt>
      <trkpt lat="44.32797" lon="4.79634">
        <ele>169.81</ele>
        <time>2018-02-22T14:10:00Z</time>
      </trkpt>
      <trkpt lat="44.32796" lon="4.79635">
        <ele>169.81</ele>
        <time>2018-02-22T14:10:01Z</time>
      </trkpt>
      <trkpt lat="44.32795" lon="4.79637">
        <ele>169.81</ele>
        <time>2018-02-22T14:10:02Z</time>
      </trkpt>
      <trkpt lat="44.32784" lon="4.79645">
        <ele>169.81</ele>
        <time>2018-02-22T14:10:15Z</time>
      </trkpt>
      <trkpt lat="44.32781" lon="4.79647">
        <ele>169.81</ele>
        <time>2018-02-22T14:10:17Z</time>
      </trkpt>
      <trkpt lat="44.3278" lon="4.79649">
        <ele>168.85</ele>
        <time>2018-02-22T14:10:18Z</time>
      </trkpt>
      <trkpt lat="44.32779" lon="4.7965">
        <ele>168.85</ele>
        <time>2018-02-22T14:10:19Z</time>
      </trkpt>
      <trkpt lat="44.32774" lon="4.79658">
        <ele>168.37</ele>
        <time>2018-02-22T14:10:24Z</time>
      </trkpt>
      <trkpt lat="44.32772" lon="4.7966">
        <ele>168.37</ele>
        <time>2018-02-22T14:10:26Z</time>
      </trkpt>
      <trkpt lat="44.32771" lon="4.79661">
        <ele>168.37</ele>
        <time>2018-02-22T14:10:27Z</time>
      </trkpt>
      <trkpt lat="44.32769" lon="4.79662">
        <ele>168.37</ele>
        <time>2018-02-22T14:10:28Z</time>
      </trkpt>
      <trkpt lat="44.32757" lon="4.79673">
        <ele>167.89</ele>
        <time>2018-02-22T14:10:45Z</time>
      </trkpt>
      <trkpt lat="44.32744" lon="4.79687">
        <ele>167.89</ele>
        <time>2018-02-22T14:10:58Z</time>
      </trkpt>
      <trkpt lat="44.32732" lon="4.797">
        <ele>165.96</ele>
        <time>2018-02-22T14:11:11Z</time>
      </trkpt>
      <trkpt lat="44.3273" lon="4.79703">
        <ele>165.96</ele>
        <time>2018-02-22T14:11:14Z</time>
      </trkpt>
      <trkpt lat="44.32717" lon="4.79719">
        <ele>165</ele>
        <time>2018-02-22T14:11:27Z</time>
      </trkpt>
      <trkpt lat="44.3271" lon="4.79729">
        <ele>164.04</ele>
        <time>2018-02-22T14:11:40Z</time>
      </trkpt>
      <trkpt lat="44.32709" lon="4.79731">
        <ele>164.04</ele>
        <time>2018-02-22T14:11:42Z</time>
      </trkpt>
      <trkpt lat="44.32708" lon="4.79733">
        <ele>163.56</ele>
        <time>2018-02-22T14:11:43Z</time>
      </trkpt>
      <trkpt lat="44.32701" lon="4.79752">
        <ele>162.6</ele>
        <time>2018-02-22T14:11:54Z</time>
      </trkpt>
      <trkpt lat="44.32695" lon="4.7977">
        <ele>161.16</ele>
        <time>2018-02-22T14:12:08Z</time>
      </trkpt>
      <trkpt lat="44.32693" lon="4.79778">
        <ele>161.16</ele>
        <time>2018-02-22T14:12:19Z</time>
      </trkpt>
      <trkpt lat="44.32693" lon="4.79778">
        <ele>161.16</ele>
        <time>2018-02-22T14:12:20Z</time>
      </trkpt>
      <trkpt lat="44.32688" lon="4.79785">
        <ele>161.16</ele>
        <time>2018-02-22T14:12:31Z</time>
      </trkpt>
      <trkpt lat="44.32685" lon="4.79789">
        <ele>161.16</ele>
        <time>2018-02-22T14:12:34Z</time>
      </trkpt>
      <trkpt lat="44.32677" lon="4.79808">
        <ele>160.68</ele>
        <time>2018-02-22T14:12:45Z</time>
      </trkpt>
      <trkpt lat="44.3267" lon="4.79824">
        <ele>158.75</ele>
        <time>2018-02-22T14:12:59Z</time>
      </trkpt>
      <trkpt lat="44.32668" lon="4.79832">
        <ele>158.75</ele>
        <time>2018-02-22T14:13:03Z</time>
      </trkpt>
      <trkpt lat="44.32668" lon="4.79835">
        <ele>158.75</ele>
        <time>2018-02-22T14:13:04Z</time>
      </trkpt>
      <trkpt lat="44.32663" lon="4.79857">
        <ele>158.27</ele>
        <time>2018-02-22T14:13:15Z</time>
      </trkpt>
      <trkpt lat="44.3266" lon="4.79865">
        <ele>157.79</ele>
        <time>2018-02-22T14:13:23Z</time>
      </trkpt>
      <trkpt lat="44.32658" lon="4.79876">
        <ele>157.31</ele>
        <time>2018-02-22T14:13:37Z</time>
      </trkpt>
      <trkpt lat="44.3266" lon="4.79878">
        <ele>158.75</ele>
        <time>2018-02-22T14:13:39Z</time>
      </trkpt>
      <trkpt lat="44.32661" lon="4.79879">
        <ele>158.75</ele>
        <time>2018-02-22T14:13:40Z</time>
      </trkpt>
      <trkpt lat="44.32666" lon="4.79883">
        <ele>157.31</ele>
        <time>2018-02-22T14:13:48Z</time>
      </trkpt>
      <trkpt lat="44.32667" lon="4.79884">
        <ele>157.31</ele>
        <time>2018-02-22T14:13:49Z</time>
      </trkpt>
      <trkpt lat="44.32668" lon="4.79885">
        <ele>157.31</ele>
        <time>2018-02-22T14:13:50Z</time>
      </trkpt>
      <trkpt lat="44.32669" lon="4.79886">
        <ele>157.31</ele>
        <time>2018-02-22T14:13:51Z</time>
      </trkpt>
      <trkpt lat="44.32681" lon="4.79894">
        <ele>158.75</ele>
        <time>2018-02-22T14:14:05Z</time>
      </trkpt>
      <trkpt lat="44.32688" lon="4.799">
        <ele>158.27</ele>
        <time>2018-02-22T14:14:18Z</time>
      </trkpt>
      <trkpt lat="44.32693" lon="4.79905">
        <ele>158.27</ele>
        <time>2018-02-22T14:14:25Z</time>
      </trkpt>
      <trkpt lat="44.32709" lon="4.79918">
        <ele>158.27</ele>
        <time>2018-02-22T14:14:38Z</time>
      </trkpt>
      <trkpt lat="44.32712" lon="4.79921">
        <ele>156.83</ele>
        <time>2018-02-22T14:14:42Z</time>
      </trkpt>
      <trkpt lat="44.32724" lon="4.79928">
        <ele>156.35</ele>
        <time>2018-02-22T14:14:58Z</time>
      </trkpt>
      <trkpt lat="44.32737" lon="4.7994">
        <ele>157.31</ele>
        <time>2018-02-22T14:15:11Z</time>
      </trkpt>
      <trkpt lat="44.32747" lon="4.79953">
        <ele>157.31</ele>
        <time>2018-02-22T14:15:24Z</time>
      </trkpt>
      <trkpt lat="44.32749" lon="4.79954">
        <ele>157.31</ele>
        <time>2018-02-22T14:15:25Z</time>
      </trkpt>
      <trkpt lat="44.3275" lon="4.79955">
        <ele>157.31</ele>
        <time>2018-02-22T14:15:26Z</time>
      </trkpt>
      <trkpt lat="44.32752" lon="4.79956">
        <ele>157.31</ele>
        <time>2018-02-22T14:15:27Z</time>
      </trkpt>
      <trkpt lat="44.32754" lon="4.79957">
        <ele>158.27</ele>
        <time>2018-02-22T14:15:28Z</time>
      </trkpt>
      <trkpt lat="44.32757" lon="4.79957">
        <ele>156.83</ele>
        <time>2018-02-22T14:15:29Z</time>
      </trkpt>
      <trkpt lat="44.32765" lon="4.79959">
        <ele>156.35</ele>
        <time>2018-02-22T14:15:37Z</time>
      </trkpt>
      <trkpt lat="44.32769" lon="4.79964">
        <ele>155.87</ele>
        <time>2018-02-22T14:15:47Z</time>
      </trkpt>
      <trkpt lat="44.32773" lon="4.79966">
        <ele>155.87</ele>
        <time>2018-02-22T14:15:51Z</time>
      </trkpt>
      <trkpt lat="44.32774" lon="4.79966">
        <ele>155.87</ele>
        <time>2018-02-22T14:15:52Z</time>
      </trkpt>
      <trkpt lat="44.32785" lon="4.79972">
        <ele>156.83</ele>
        <time>2018-02-22T14:16:04Z</time>
      </trkpt>
      <trkpt lat="44.32787" lon="4.79975">
        <ele>156.83</ele>
        <time>2018-02-22T14:16:07Z</time>
      </trkpt>
      <trkpt lat="44.32794" lon="4.79982">
        <ele>155.87</ele>
        <time>2018-02-22T14:16:18Z</time>
      </trkpt>
      <trkpt lat="44.3281" lon="4.79997">
        <ele>154.91</ele>
        <time>2018-02-22T14:16:32Z</time>
      </trkpt>
      <trkpt lat="44.3282" lon="4.80005">
        <ele>154.91</ele>
        <time>2018-02-22T14:16:46Z</time>
      </trkpt>
      <trkpt lat="44.32836" lon="4.80015">
        <ele>156.35</ele>
        <time>2018-02-22T14:16:57Z</time>
      </trkpt>
      <trkpt lat="44.32849" lon="4.80023">
        <ele>156.35</ele>
        <time>2018-02-22T14:17:07Z</time>
      </trkpt>
      <trkpt lat="44.32853" lon="4.80027">
        <ele>154.91</ele>
        <time>2018-02-22T14:17:15Z</time>
      </trkpt>
      <trkpt lat="44.32854" lon="4.80029">
        <ele>154.91</ele>
        <time>2018-02-22T14:17:17Z</time>
      </trkpt>
      <trkpt lat="44.32854" lon="4.80034">
        <ele>154.91</ele>
        <time>2018-02-22T14:17:22Z</time>
      </trkpt>
      <trkpt lat="44.32853" lon="4.80054">
        <ele>153.95</ele>
        <time>2018-02-22T14:17:38Z</time>
      </trkpt>
      <trkpt lat="44.32854" lon="4.80058">
        <ele>153.95</ele>
        <time>2018-02-22T14:17:56Z</time>
      </trkpt>
      <trkpt lat="44.32851" lon="4.80075">
        <ele>152.99</ele>
        <time>2018-02-22T14:18:10Z</time>
      </trkpt>
      <trkpt lat="44.32851" lon="4.80079">
        <ele>152.99</ele>
        <time>2018-02-22T14:18:13Z</time>
      </trkpt>
      <trkpt lat="44.32851" lon="4.80081">
        <ele>152.51</ele>
        <time>2018-02-22T14:18:14Z</time>
      </trkpt>
      <trkpt lat="44.32851" lon="4.80083">
        <ele>152.51</ele>
        <time>2018-02-22T14:18:15Z</time>
      </trkpt>
      <trkpt lat="44.32849" lon="4.80109">
        <ele>151.54</ele>
        <time>2018-02-22T14:18:29Z</time>
      </trkpt>
      <trkpt lat="44.32848" lon="4.80133">
        <ele>150.58</ele>
        <time>2018-02-22T14:18:42Z</time>
      </trkpt>
      <trkpt lat="44.3285" lon="4.80152">
        <ele>150.1</ele>
        <time>2018-02-22T14:18:53Z</time>
      </trkpt>
      <trkpt lat="44.32846" lon="4.80163">
        <ele>148.66</ele>
        <time>2018-02-22T14:19:04Z</time>
      </trkpt>
      <trkpt lat="44.32846" lon="4.80174">
        <ele>148.18</ele>
        <time>2018-02-22T14:19:17Z</time>
      </trkpt>
      <trkpt lat="44.32846" lon="4.80176">
        <ele>148.18</ele>
        <time>2018-02-22T14:19:21Z</time>
      </trkpt>
      <trkpt lat="44.32847" lon="4.8018">
        <ele>147.7</ele>
        <time>2018-02-22T14:19:30Z</time>
      </trkpt>
      <trkpt lat="44.32847" lon="4.80181">
        <ele>147.7</ele>
        <time>2018-02-22T14:19:31Z</time>
      </trkpt>
      <trkpt lat="44.32845" lon="4.80187">
        <ele>147.7</ele>
        <time>2018-02-22T14:19:36Z</time>
      </trkpt>
      <trkpt lat="44.32844" lon="4.80205">
        <ele>146.26</ele>
        <time>2018-02-22T14:19:51Z</time>
      </trkpt>
      <trkpt lat="44.32842" lon="4.80216">
        <ele>145.3</ele>
        <time>2018-02-22T14:19:59Z</time>
      </trkpt>
      <trkpt lat="44.32842" lon="4.80218">
        <ele>145.3</ele>
        <time>2018-02-22T14:20:00Z</time>
      </trkpt>
      <trkpt lat="44.32841" lon="4.80222">
        <ele>145.3</ele>
        <time>2018-02-22T14:20:02Z</time>
      </trkpt>
      <trkpt lat="44.32841" lon="4.80224">
        <ele>145.3</ele>
        <time>2018-02-22T14:20:03Z</time>
      </trkpt>
      <trkpt lat="44.32841" lon="4.80227">
        <ele>144.82</ele>
        <time>2018-02-22T14:20:04Z</time>
      </trkpt>
      <trkpt lat="44.32841" lon="4.80229">
        <ele>144.82</ele>
        <time>2018-02-22T14:20:05Z</time>
      </trkpt>
      <trkpt lat="44.32841" lon="4.80231">
        <ele>144.82</ele>
        <time>2018-02-22T14:20:06Z</time>
      </trkpt>
      <trkpt lat="44.3284" lon="4.80233">
        <ele>144.82</ele>
        <time>2018-02-22T14:20:07Z</time>
      </trkpt>
      <trkpt lat="44.3284" lon="4.80234">
        <ele>144.82</ele>
        <time>2018-02-22T14:20:08Z</time>
      </trkpt>
      <trkpt lat="44.32838" lon="4.80254">
        <ele>143.85</ele>
        <time>2018-02-22T14:20:20Z</time>
      </trkpt>
      <trkpt lat="44.32839" lon="4.80283">
        <ele>143.37</ele>
        <time>2018-02-22T14:20:34Z</time>
      </trkpt>
      <trkpt lat="44.32839" lon="4.80285">
        <ele>143.37</ele>
        <time>2018-02-22T14:20:35Z</time>
      </trkpt>
      <trkpt lat="44.32839" lon="4.80286">
        <ele>143.37</ele>
        <time>2018-02-22T14:20:36Z</time>
      </trkpt>
      <trkpt lat="44.32839" lon="4.8029">
        <ele>142.41</ele>
        <time>2018-02-22T14:20:41Z</time>
      </trkpt>
      <trkpt lat="44.32837" lon="4.803">
        <ele>141.93</ele>
        <time>2018-02-22T14:20:53Z</time>
      </trkpt>
      <trkpt lat="44.32838" lon="4.803">
        <ele>141.93</ele>
        <time>2018-02-22T14:20:55Z</time>
      </trkpt>
      <trkpt lat="44.32839" lon="4.803">
        <ele>141.93</ele>
        <time>2018-02-22T14:20:56Z</time>
      </trkpt>
      <trkpt lat="44.3284" lon="4.80299">
        <ele>141.93</ele>
        <time>2018-02-22T14:20:57Z</time>
      </trkpt>
      <trkpt lat="44.32844" lon="4.80299">
        <ele>143.37</ele>
        <time>2018-02-22T14:21:04Z</time>
      </trkpt>
      <trkpt lat="44.32846" lon="4.803">
        <ele>143.37</ele>
        <time>2018-02-22T14:21:06Z</time>
      </trkpt>
      <trkpt lat="44.32847" lon="4.803">
        <ele>143.37</ele>
        <time>2018-02-22T14:21:07Z</time>
      </trkpt>
      <trkpt lat="44.32847" lon="4.80301">
        <ele>143.37</ele>
        <time>2018-02-22T14:21:08Z</time>
      </trkpt>
      <trkpt lat="44.32861" lon="4.80304">
        <ele>143.85</ele>
        <time>2018-02-22T14:21:24Z</time>
      </trkpt>
      <trkpt lat="44.32862" lon="4.80304">
        <ele>143.85</ele>
        <time>2018-02-22T14:21:25Z</time>
      </trkpt>
      <trkpt lat="44.32865" lon="4.80305">
        <ele>143.85</ele>
        <time>2018-02-22T14:21:28Z</time>
      </trkpt>
      <trkpt lat="44.32875" lon="4.80307">
        <ele>143.85</ele>
        <time>2018-02-22T14:21:38Z</time>
      </trkpt>
      <trkpt lat="44.32879" lon="4.80308">
        <ele>145.78</ele>
        <time>2018-02-22T14:21:41Z</time>
      </trkpt>
      <trkpt lat="44.32884" lon="4.80312">
        <ele>144.34</ele>
        <time>2018-02-22T14:21:50Z</time>
      </trkpt>
      <trkpt lat="44.32885" lon="4.80312">
        <ele>144.34</ele>
        <time>2018-02-22T14:21:51Z</time>
      </trkpt>
      <trkpt lat="44.32887" lon="4.80312">
        <ele>144.34</ele>
        <time>2018-02-22T14:21:52Z</time>
      </trkpt>
      <trkpt lat="44.32889" lon="4.80312">
        <ele>144.34</ele>
        <time>2018-02-22T14:21:53Z</time>
      </trkpt>
      <trkpt lat="44.32891" lon="4.80311">
        <ele>144.34</ele>
        <time>2018-02-22T14:21:54Z</time>
      </trkpt>
      <trkpt lat="44.32898" lon="4.80314">
        <ele>146.26</ele>
        <time>2018-02-22T14:22:02Z</time>
      </trkpt>
      <trkpt lat="44.32899" lon="4.80315">
        <ele>144.82</ele>
        <time>2018-02-22T14:22:04Z</time>
      </trkpt>
      <trkpt lat="44.329" lon="4.80315">
        <ele>146.26</ele>
        <time>2018-02-22T14:22:05Z</time>
      </trkpt>
      <trkpt lat="44.32902" lon="4.80314">
        <ele>146.26</ele>
        <time>2018-02-22T14:22:06Z</time>
      </trkpt>
      <trkpt lat="44.32912" lon="4.80318">
        <ele>146.26</ele>
        <time>2018-02-22T14:22:17Z</time>
      </trkpt>
      <trkpt lat="44.32925" lon="4.80319">
        <ele>145.78</ele>
        <time>2018-02-22T14:22:25Z</time>
      </trkpt>
      <trkpt lat="44.32927" lon="4.8032">
        <ele>145.78</ele>
        <time>2018-02-22T14:22:26Z</time>
      </trkpt>
      <trkpt lat="44.32929" lon="4.80321">
        <ele>145.78</ele>
        <time>2018-02-22T14:22:27Z</time>
      </trkpt>
      <trkpt lat="44.3293" lon="4.80321">
        <ele>145.78</ele>
        <time>2018-02-22T14:22:28Z</time>
      </trkpt>
      <trkpt lat="44.32931" lon="4.80321">
        <ele>145.78</ele>
        <time>2018-02-22T14:22:29Z</time>
      </trkpt>
      <trkpt lat="44.32936" lon="4.80324">
        <ele>144.82</ele>
        <time>2018-02-22T14:22:38Z</time>
      </trkpt>
      <trkpt lat="44.3294" lon="4.80324">
        <ele>147.22</ele>
        <time>2018-02-22T14:22:41Z</time>
      </trkpt>
      <trkpt lat="44.32944" lon="4.80324">
        <ele>145.78</ele>
        <time>2018-02-22T14:22:43Z</time>
      </trkpt>
      <trkpt lat="44.32951" lon="4.80328">
        <ele>147.22</ele>
        <time>2018-02-22T14:22:53Z</time>
      </trkpt>
      <trkpt lat="44.32955" lon="4.80327">
        <ele>147.22</ele>
        <time>2018-02-22T14:22:57Z</time>
      </trkpt>
      <trkpt lat="44.32956" lon="4.80327">
        <ele>147.22</ele>
        <time>2018-02-22T14:22:58Z</time>
      </trkpt>
      <trkpt lat="44.32963" lon="4.8033">
        <ele>146.74</ele>
        <time>2018-02-22T14:23:05Z</time>
      </trkpt>
      <trkpt lat="44.3298" lon="4.80331">
        <ele>148.18</ele>
        <time>2018-02-22T14:23:19Z</time>
      </trkpt>
      <trkpt lat="44.32992" lon="4.80336">
        <ele>148.18</ele>
        <time>2018-02-22T14:23:32Z</time>
      </trkpt>
      <trkpt lat="44.33" lon="4.80336">
        <ele>148.18</ele>
        <time>2018-02-22T14:23:37Z</time>
      </trkpt>
      <trkpt lat="44.33001" lon="4.80336">
        <ele>148.18</ele>
        <time>2018-02-22T14:23:38Z</time>
      </trkpt>
      <trkpt lat="44.33003" lon="4.80336">
        <ele>148.18</ele>
        <time>2018-02-22T14:23:39Z</time>
      </trkpt>
      <trkpt lat="44.33004" lon="4.80335">
        <ele>148.18</ele>
        <time>2018-02-22T14:23:40Z</time>
      </trkpt>
      <trkpt lat="44.33006" lon="4.80335">
        <ele>148.18</ele>
        <time>2018-02-22T14:23:41Z</time>
      </trkpt>
      <trkpt lat="44.33007" lon="4.80335">
        <ele>148.18</ele>
        <time>2018-02-22T14:23:42Z</time>
      </trkpt>
      <trkpt lat="44.33008" lon="4.80336">
        <ele>148.18</ele>
        <time>2018-02-22T14:23:43Z</time>
      </trkpt>
      <trkpt lat="44.33013" lon="4.80339">
        <ele>147.7</ele>
        <time>2018-02-22T14:23:50Z</time>
      </trkpt>
      <trkpt lat="44.33014" lon="4.8034">
        <ele>147.7</ele>
        <time>2018-02-22T14:23:51Z</time>
      </trkpt>
      <trkpt lat="44.33028" lon="4.80345">
        <ele>149.14</ele>
        <time>2018-02-22T14:24:04Z</time>
      </trkpt>
      <trkpt lat="44.3304" lon="4.80347">
        <ele>149.62</ele>
        <time>2018-02-22T14:24:16Z</time>
      </trkpt>
      <trkpt lat="44.33058" lon="4.8035">
        <ele>152.03</ele>
        <time>2018-02-22T14:24:29Z</time>
      </trkpt>
      <trkpt lat="44.33061" lon="4.80351">
        <ele>151.54</ele>
        <time>2018-02-22T14:24:33Z</time>
      </trkpt>
      <trkpt lat="44.33062" lon="4.80351">
        <ele>151.54</ele>
        <time>2018-02-22T14:24:34Z</time>
      </trkpt>
      <trkpt lat="44.33064" lon="4.80351">
        <ele>151.54</ele>
        <time>2018-02-22T14:24:35Z</time>
      </trkpt>
      <trkpt lat="44.33079" lon="4.80353">
        <ele>150.1</ele>
        <time>2018-02-22T14:24:48Z</time>
      </trkpt>
      <trkpt lat="44.33089" lon="4.80357">
        <ele>148.66</ele>
        <time>2018-02-22T14:25:00Z</time>
      </trkpt>
      <trkpt lat="44.33102" lon="4.80353">
        <ele>148.18</ele>
        <time>2018-02-22T14:25:12Z</time>
      </trkpt>
      <trkpt lat="44.33104" lon="4.80352">
        <ele>146.74</ele>
        <time>2018-02-22T14:25:14Z</time>
      </trkpt>
      <trkpt lat="44.33106" lon="4.80351">
        <ele>145.78</ele>
        <time>2018-02-22T14:25:16Z</time>
      </trkpt>
      <trkpt lat="44.33109" lon="4.80351">
        <ele>144.82</ele>
        <time>2018-02-22T14:25:19Z</time>
      </trkpt>
      <trkpt lat="44.33114" lon="4.8036">
        <ele>142.89</ele>
        <time>2018-02-22T14:25:26Z</time>
      </trkpt>
      <trkpt lat="44.33115" lon="4.80366">
        <ele>142.89</ele>
        <time>2018-02-22T14:25:40Z</time>
      </trkpt>
      <trkpt lat="44.33115" lon="4.80368">
        <ele>144.82</ele>
        <time>2018-02-22T14:25:43Z</time>
      </trkpt>
      <trkpt lat="44.33116" lon="4.80369">
        <ele>144.82</ele>
        <time>2018-02-22T14:25:44Z</time>
      </trkpt>
      <trkpt lat="44.33116" lon="4.80371">
        <ele>143.37</ele>
        <time>2018-02-22T14:25:46Z</time>
      </trkpt>
      <trkpt lat="44.33117" lon="4.80381">
        <ele>143.37</ele>
        <time>2018-02-22T14:25:58Z</time>
      </trkpt>
      <trkpt lat="44.33119" lon="4.80399">
        <ele>141.45</ele>
        <time>2018-02-22T14:26:10Z</time>
      </trkpt>
      <trkpt lat="44.3312" lon="4.80414">
        <ele>141.45</ele>
        <time>2018-02-22T14:26:22Z</time>
      </trkpt>
      <trkpt lat="44.33122" lon="4.80432">
        <ele>140.49</ele>
        <time>2018-02-22T14:26:33Z</time>
      </trkpt>
      <trkpt lat="44.33125" lon="4.80441">
        <ele>141.93</ele>
        <time>2018-02-22T14:26:37Z</time>
      </trkpt>
      <trkpt lat="44.33128" lon="4.80453">
        <ele>140.49</ele>
        <time>2018-02-22T14:26:48Z</time>
      </trkpt>
      <trkpt lat="44.33134" lon="4.8047">
        <ele>140.01</ele>
        <time>2018-02-22T14:27:04Z</time>
      </trkpt>
      <trkpt lat="44.33132" lon="4.80481">
        <ele>140.01</ele>
        <time>2018-02-22T14:27:14Z</time>
      </trkpt>
      <trkpt lat="44.3313" lon="4.80502">
        <ele>139.05</ele>
        <time>2018-02-22T14:27:30Z</time>
      </trkpt>
      <trkpt lat="44.33129" lon="4.80512">
        <ele>140.01</ele>
        <time>2018-02-22T14:27:37Z</time>
      </trkpt>
      <trkpt lat="44.3313" lon="4.80515">
        <ele>140.01</ele>
        <time>2018-02-22T14:27:38Z</time>
      </trkpt>
      <trkpt lat="44.33129" lon="4.80523">
        <ele>140.01</ele>
        <time>2018-02-22T14:27:43Z</time>
      </trkpt>
      <trkpt lat="44.33129" lon="4.80525">
        <ele>140.01</ele>
        <time>2018-02-22T14:27:44Z</time>
      </trkpt>
      <trkpt lat="44.33128" lon="4.8054">
        <ele>139.05</ele>
        <time>2018-02-22T14:27:55Z</time>
      </trkpt>
      <trkpt lat="44.33129" lon="4.80542">
        <ele>138.57</ele>
        <time>2018-02-22T14:27:56Z</time>
      </trkpt>
      <trkpt lat="44.33129" lon="4.80543">
        <ele>138.57</ele>
        <time>2018-02-22T14:27:57Z</time>
      </trkpt>
      <trkpt lat="44.3313" lon="4.80545">
        <ele>137.61</ele>
        <time>2018-02-22T14:27:58Z</time>
      </trkpt>
      <trkpt lat="44.3313" lon="4.80563">
        <ele>135.68</ele>
        <time>2018-02-22T14:28:09Z</time>
      </trkpt>
      <trkpt lat="44.33121" lon="4.8057">
        <ele>134.72</ele>
        <time>2018-02-22T14:28:20Z</time>
      </trkpt>
      <trkpt lat="44.33107" lon="4.80578">
        <ele>132.8</ele>
        <time>2018-02-22T14:28:36Z</time>
      </trkpt>
      <trkpt lat="44.33101" lon="4.80578">
        <ele>131.84</ele>
        <time>2018-02-22T14:28:43Z</time>
      </trkpt>
      <trkpt lat="44.33102" lon="4.80577">
        <ele>132.8</ele>
        <time>2018-02-22T14:28:53Z</time>
      </trkpt>
      <trkpt lat="44.33102" lon="4.80577">
        <ele>132.8</ele>
        <time>2018-02-22T14:28:54Z</time>
      </trkpt>
      <trkpt lat="44.33098" lon="4.8058">
        <ele>131.36</ele>
        <time>2018-02-22T14:28:59Z</time>
      </trkpt>
      <trkpt lat="44.33098" lon="4.80587">
        <ele>132.8</ele>
        <time>2018-02-22T14:29:05Z</time>
      </trkpt>
      <trkpt lat="44.33098" lon="4.80588">
        <ele>130.88</ele>
        <time>2018-02-22T14:29:06Z</time>
      </trkpt>
      <trkpt lat="44.33099" lon="4.8059">
        <ele>130.88</ele>
        <time>2018-02-22T14:29:07Z</time>
      </trkpt>
      <trkpt lat="44.33105" lon="4.80595">
        <ele>128.95</ele>
        <time>2018-02-22T14:29:20Z</time>
      </trkpt>
      <trkpt lat="44.33109" lon="4.80599">
        <ele>126.55</ele>
        <time>2018-02-22T14:29:34Z</time>
      </trkpt>
      <trkpt lat="44.33116" lon="4.80605">
        <ele>123.67</ele>
        <time>2018-02-22T14:29:48Z</time>
      </trkpt>
      <trkpt lat="44.33122" lon="4.80616">
        <ele>122.22</ele>
        <time>2018-02-22T14:30:01Z</time>
      </trkpt>
      <trkpt lat="44.33126" lon="4.8062">
        <ele>121.74</ele>
        <time>2018-02-22T14:30:07Z</time>
      </trkpt>
      <trkpt lat="44.3313" lon="4.80629">
        <ele>120.3</ele>
        <time>2018-02-22T14:30:19Z</time>
      </trkpt>
      <trkpt lat="44.3313" lon="4.80639">
        <ele>118.38</ele>
        <time>2018-02-22T14:30:31Z</time>
      </trkpt>
      <trkpt lat="44.33132" lon="4.80648">
        <ele>117.42</ele>
        <time>2018-02-22T14:30:42Z</time>
      </trkpt>
      <trkpt lat="44.33135" lon="4.80656">
        <ele>115.98</ele>
        <time>2018-02-22T14:30:51Z</time>
      </trkpt>
      <trkpt lat="44.33137" lon="4.80661">
        <ele>115.5</ele>
        <time>2018-02-22T14:30:57Z</time>
      </trkpt>
      <trkpt lat="44.33138" lon="4.80667">
        <ele>115.5</ele>
        <time>2018-02-22T14:31:02Z</time>
      </trkpt>
      <trkpt lat="44.33141" lon="4.80676">
        <ele>114.05</ele>
        <time>2018-02-22T14:31:10Z</time>
      </trkpt>
      <trkpt lat="44.33145" lon="4.80685">
        <ele>113.57</ele>
        <time>2018-02-22T14:31:18Z</time>
      </trkpt>
      <trkpt lat="44.33149" lon="4.80689">
        <ele>113.09</ele>
        <time>2018-02-22T14:31:23Z</time>
      </trkpt>
      <trkpt lat="44.33152" lon="4.80693">
        <ele>112.61</ele>
        <time>2018-02-22T14:31:26Z</time>
      </trkpt>
      <trkpt lat="44.33155" lon="4.807">
        <ele>112.13</ele>
        <time>2018-02-22T14:31:32Z</time>
      </trkpt>
      <trkpt lat="44.33156" lon="4.80703">
        <ele>111.65</ele>
        <time>2018-02-22T14:31:35Z</time>
      </trkpt>
      <trkpt lat="44.33158" lon="4.80707">
        <ele>111.65</ele>
        <time>2018-02-22T14:31:38Z</time>
      </trkpt>
      <trkpt lat="44.33164" lon="4.80715">
        <ele>110.21</ele>
        <time>2018-02-22T14:31:48Z</time>
      </trkpt>
      <trkpt lat="44.33173" lon="4.80731">
        <ele>109.25</ele>
        <time>2018-02-22T14:32:00Z</time>
      </trkpt>
      <trkpt lat="44.33178" lon="4.80742">
        <ele>107.81</ele>
        <time>2018-02-22T14:32:11Z</time>
      </trkpt>
      <trkpt lat="44.33177" lon="4.8075">
        <ele>106.36</ele>
        <time>2018-02-22T14:32:15Z</time>
      </trkpt>
      <trkpt lat="44.33176" lon="4.80764">
        <ele>104.92</ele>
        <time>2018-02-22T14:32:27Z</time>
      </trkpt>
      <trkpt lat="44.33176" lon="4.80764">
        <ele>106.36</ele>
        <time>2018-02-22T14:32:29Z</time>
      </trkpt>
      <trkpt lat="44.33177" lon="4.80767">
        <ele>104.92</ele>
        <time>2018-02-22T14:32:32Z</time>
      </trkpt>
      <trkpt lat="44.33176" lon="4.80776">
        <ele>103.48</ele>
        <time>2018-02-22T14:32:43Z</time>
      </trkpt>
      <trkpt lat="44.33174" lon="4.8079">
        <ele>102.52</ele>
        <time>2018-02-22T14:32:54Z</time>
      </trkpt>
      <trkpt lat="44.33174" lon="4.80804">
        <ele>101.56</ele>
        <time>2018-02-22T14:33:08Z</time>
      </trkpt>
      <trkpt lat="44.33174" lon="4.80807">
        <ele>101.56</ele>
        <time>2018-02-22T14:33:10Z</time>
      </trkpt>
      <trkpt lat="44.33178" lon="4.80816">
        <ele>101.08</ele>
        <time>2018-02-22T14:33:20Z</time>
      </trkpt>
      <trkpt lat="44.33179" lon="4.80818">
        <ele>100.6</ele>
        <time>2018-02-22T14:33:22Z</time>
      </trkpt>
      <trkpt lat="44.33179" lon="4.8082">
        <ele>100.6</ele>
        <time>2018-02-22T14:33:24Z</time>
      </trkpt>
      <trkpt lat="44.33189" lon="4.80824">
        <ele>98.67</ele>
        <time>2018-02-22T14:33:37Z</time>
      </trkpt>
      <trkpt lat="44.33192" lon="4.80827">
        <ele>98.67</ele>
        <time>2018-02-22T14:33:46Z</time>
      </trkpt>
      <trkpt lat="44.33192" lon="4.80827">
        <ele>100.6</ele>
        <time>2018-02-22T14:34:07Z</time>
      </trkpt>
      <trkpt lat="44.33191" lon="4.80827">
        <ele>99.15</ele>
        <time>2018-02-22T14:34:15Z</time>
      </trkpt>
      <trkpt lat="44.33191" lon="4.80828">
        <ele>100.11</ele>
        <time>2018-02-22T14:34:23Z</time>
      </trkpt>
      <trkpt lat="44.33191" lon="4.8083">
        <ele>98.67</ele>
        <time>2018-02-22T14:34:42Z</time>
      </trkpt>
      <trkpt lat="44.33194" lon="4.80831">
        <ele>98.67</ele>
        <time>2018-02-22T14:34:48Z</time>
      </trkpt>
      <trkpt lat="44.33203" lon="4.80837">
        <ele>98.19</ele>
        <time>2018-02-22T14:35:00Z</time>
      </trkpt>
      <trkpt lat="44.33213" lon="4.80841">
        <ele>98.19</ele>
        <time>2018-02-22T14:35:11Z</time>
      </trkpt>
      <trkpt lat="44.33214" lon="4.80842">
        <ele>98.19</ele>
        <time>2018-02-22T14:35:12Z</time>
      </trkpt>
      <trkpt lat="44.33222" lon="4.80847">
        <ele>98.19</ele>
        <time>2018-02-22T14:35:25Z</time>
      </trkpt>
      <trkpt lat="44.33227" lon="4.80851">
        <ele>99.15</ele>
        <time>2018-02-22T14:35:46Z</time>
      </trkpt>
      <trkpt lat="44.33229" lon="4.80853">
        <ele>99.15</ele>
        <time>2018-02-22T14:35:52Z</time>
      </trkpt>
      <trkpt lat="44.33233" lon="4.80854">
        <ele>97.71</ele>
        <time>2018-02-22T14:35:56Z</time>
      </trkpt>
      <trkpt lat="44.33235" lon="4.80855">
        <ele>98.67</ele>
        <time>2018-02-22T14:35:58Z</time>
      </trkpt>
      <trkpt lat="44.33241" lon="4.80856">
        <ele>99.15</ele>
        <time>2018-02-22T14:36:04Z</time>
      </trkpt>
      <trkpt lat="44.33248" lon="4.80858">
        <ele>98.19</ele>
        <time>2018-02-22T14:36:10Z</time>
      </trkpt>
      <trkpt lat="44.33257" lon="4.80858">
        <ele>98.67</ele>
        <time>2018-02-22T14:36:18Z</time>
      </trkpt>
      <trkpt lat="44.33264" lon="4.8086">
        <ele>100.6</ele>
        <time>2018-02-22T14:36:30Z</time>
      </trkpt>
      <trkpt lat="44.33266" lon="4.8086">
        <ele>100.6</ele>
        <time>2018-02-22T14:36:42Z</time>
      </trkpt>
      <trkpt lat="44.33266" lon="4.80861">
        <ele>99.15</ele>
        <time>2018-02-22T14:36:48Z</time>
      </trkpt>
      <trkpt lat="44.33267" lon="4.8086">
        <ele>98.67</ele>
        <time>2018-02-22T14:37:10Z</time>
      </trkpt>
      <trkpt lat="44.33266" lon="4.80861">
        <ele>100.11</ele>
        <time>2018-02-22T14:37:13Z</time>
      </trkpt>
      <trkpt lat="44.33268" lon="4.8086">
        <ele>100.11</ele>
        <time>2018-02-22T14:37:37Z</time>
      </trkpt>
      <trkpt lat="44.33268" lon="4.80859">
        <ele>99.63</ele>
        <time>2018-02-22T14:37:46Z</time>
      </trkpt>
      <trkpt lat="44.33267" lon="4.8086">
        <ele>99.63</ele>
        <time>2018-02-22T14:38:04Z</time>
      </trkpt>
      <trkpt lat="44.33266" lon="4.8086">
        <ele>99.63</ele>
        <time>2018-02-22T14:38:31Z</time>
      </trkpt>
      <trkpt lat="44.33266" lon="4.8086">
        <ele>101.08</ele>
        <time>2018-02-22T14:38:38Z</time>
      </trkpt>
      <trkpt lat="44.33265" lon="4.80862">
        <ele>99.63</ele>
        <time>2018-02-22T14:39:16Z</time>
      </trkpt>
      <trkpt lat="44.33265" lon="4.80862">
        <ele>102.04</ele>
        <time>2018-02-22T14:39:19Z</time>
      </trkpt>
      <trkpt lat="44.33265" lon="4.80862">
        <ele>100.6</ele>
        <time>2018-02-22T14:39:21Z</time>
      </trkpt>
      <trkpt lat="44.33265" lon="4.80863">
        <ele>99.63</ele>
        <time>2018-02-22T14:39:45Z</time>
      </trkpt>
      <trkpt lat="44.33265" lon="4.80863">
        <ele>101.08</ele>
        <time>2018-02-22T14:39:50Z</time>
      </trkpt>
      <trkpt lat="44.33265" lon="4.80862">
        <ele>101.08</ele>
        <time>2018-02-22T14:40:02Z</time>
      </trkpt>
      <trkpt lat="44.33264" lon="4.80862">
        <ele>101.08</ele>
        <time>2018-02-22T14:40:33Z</time>
      </trkpt>
      <trkpt lat="44.33264" lon="4.80862">
        <ele>99.63</ele>
        <time>2018-02-22T14:40:53Z</time>
      </trkpt>
      <trkpt lat="44.33265" lon="4.80862">
        <ele>101.08</ele>
        <time>2018-02-22T14:41:20Z</time>
      </trkpt>
      <trkpt lat="44.33266" lon="4.80863">
        <ele>101.08</ele>
        <time>2018-02-22T14:41:50Z</time>
      </trkpt>
      <trkpt lat="44.33266" lon="4.80862">
        <ele>101.08</ele>
        <time>2018-02-22T14:42:15Z</time>
      </trkpt>
      <trkpt lat="44.33266" lon="4.80862">
        <ele>100.6</ele>
        <time>2018-02-22T14:42:22Z</time>
      </trkpt>
      <trkpt lat="44.33265" lon="4.80861">
        <ele>100.11</ele>
        <time>2018-02-22T14:42:42Z</time>
      </trkpt>
      <trkpt lat="44.33266" lon="4.80861">
        <ele>101.56</ele>
        <time>2018-02-22T14:42:48Z</time>
      </trkpt>
      <trkpt lat="44.33265" lon="4.80862">
        <ele>99.63</ele>
        <time>2018-02-22T14:42:51Z</time>
      </trkpt>
      <trkpt lat="44.33265" lon="4.80862">
        <ele>101.08</ele>
        <time>2018-02-22T14:42:57Z</time>
      </trkpt>
      <trkpt lat="44.33266" lon="4.80862">
        <ele>102.04</ele>
        <time>2018-02-22T14:43:26Z</time>
      </trkpt>
      <trkpt lat="44.33266" lon="4.80863">
        <ele>100.6</ele>
        <time>2018-02-22T14:43:29Z</time>
      </trkpt>
      <trkpt lat="44.33266" lon="4.80863">
        <ele>102.04</ele>
        <time>2018-02-22T14:43:32Z</time>
      </trkpt>
      <trkpt lat="44.33265" lon="4.80863">
        <ele>101.56</ele>
        <time>2018-02-22T14:44:00Z</time>
      </trkpt>
      <trkpt lat="44.33266" lon="4.80861">
        <ele>102.04</ele>
        <time>2018-02-22T14:44:29Z</time>
      </trkpt>
      <trkpt lat="44.33266" lon="4.8086">
        <ele>102.04</ele>
        <time>2018-02-22T14:45:01Z</time>
      </trkpt>
      <trkpt lat="44.33266" lon="4.80864">
        <ele>100.6</ele>
        <time>2018-02-22T14:45:31Z</time>
      </trkpt>
      <trkpt lat="44.33266" lon="4.80864">
        <ele>102.04</ele>
        <time>2018-02-22T14:45:36Z</time>
      </trkpt>
      <trkpt lat="44.33267" lon="4.80861">
        <ele>101.08</ele>
        <time>2018-02-22T14:45:46Z</time>
      </trkpt>
      <trkpt lat="44.33267" lon="4.80861">
        <ele>102.04</ele>
        <time>2018-02-22T14:45:52Z</time>
      </trkpt>
      <trkpt lat="44.33267" lon="4.80863">
        <ele>103</ele>
        <time>2018-02-22T14:46:28Z</time>
      </trkpt>
      <trkpt lat="44.33268" lon="4.8086">
        <ele>102.04</ele>
        <time>2018-02-22T14:47:04Z</time>
      </trkpt>
      <trkpt lat="44.33267" lon="4.8086">
        <ele>102.04</ele>
        <time>2018-02-22T14:47:33Z</time>
      </trkpt>
      <trkpt lat="44.33267" lon="4.8086">
        <ele>102.52</ele>
        <time>2018-02-22T14:48:02Z</time>
      </trkpt>
      <trkpt lat="44.33267" lon="4.8086">
        <ele>103.48</ele>
        <time>2018-02-22T14:48:12Z</time>
      </trkpt>
      <trkpt lat="44.33267" lon="4.8086">
        <ele>102.04</ele>
        <time>2018-02-22T14:48:15Z</time>
      </trkpt>
      <trkpt lat="44.33268" lon="4.80861">
        <ele>101.56</ele>
        <time>2018-02-22T14:48:33Z</time>
      </trkpt>
      <trkpt lat="44.33267" lon="4.80862">
        <ele>101.56</ele>
        <time>2018-02-22T14:48:48Z</time>
      </trkpt>
      <trkpt lat="44.33267" lon="4.80861">
        <ele>102.52</ele>
        <time>2018-02-22T14:49:04Z</time>
      </trkpt>
      <trkpt lat="44.33267" lon="4.80861">
        <ele>101.56</ele>
        <time>2018-02-22T14:49:08Z</time>
      </trkpt>
      <trkpt lat="44.33267" lon="4.80861">
        <ele>103</ele>
        <time>2018-02-22T14:49:26Z</time>
      </trkpt>
      <trkpt lat="44.33268" lon="4.80861">
        <ele>102.52</ele>
        <time>2018-02-22T14:49:36Z</time>
      </trkpt>
      <trkpt lat="44.33271" lon="4.80862">
        <ele>100.6</ele>
        <time>2018-02-22T14:49:45Z</time>
      </trkpt>
      <trkpt lat="44.33271" lon="4.80862">
        <ele>102.04</ele>
        <time>2018-02-22T14:49:48Z</time>
      </trkpt>
      <trkpt lat="44.33273" lon="4.80862">
        <ele>102.04</ele>
        <time>2018-02-22T14:49:54Z</time>
      </trkpt>
      <trkpt lat="44.33279" lon="4.80865">
        <ele>101.08</ele>
        <time>2018-02-22T14:50:05Z</time>
      </trkpt>
      <trkpt lat="44.33287" lon="4.80869">
        <ele>100.6</ele>
        <time>2018-02-22T14:50:18Z</time>
      </trkpt>
      <trkpt lat="44.33298" lon="4.80874">
        <ele>100.6</ele>
        <time>2018-02-22T14:50:34Z</time>
      </trkpt>
      <trkpt lat="44.33304" lon="4.80876">
        <ele>101.08</ele>
        <time>2018-02-22T14:50:42Z</time>
      </trkpt>
      <trkpt lat="44.33319" lon="4.80877">
        <ele>101.08</ele>
        <time>2018-02-22T14:50:55Z</time>
      </trkpt>
      <trkpt lat="44.33329" lon="4.80877">
        <ele>100.6</ele>
        <time>2018-02-22T14:51:02Z</time>
      </trkpt>
      <trkpt lat="44.33344" lon="4.80878">
        <ele>102.04</ele>
        <time>2018-02-22T14:51:12Z</time>
      </trkpt>
      <trkpt lat="44.33347" lon="4.80878">
        <ele>100.6</ele>
        <time>2018-02-22T14:51:14Z</time>
      </trkpt>
      <trkpt lat="44.33362" lon="4.80879">
        <ele>100.6</ele>
        <time>2018-02-22T14:51:28Z</time>
      </trkpt>
      <trkpt lat="44.33367" lon="4.80879">
        <ele>102.04</ele>
        <time>2018-02-22T14:51:32Z</time>
      </trkpt>
      <trkpt lat="44.33378" lon="4.80879">
        <ele>102.52</ele>
        <time>2018-02-22T14:51:47Z</time>
      </trkpt>
      <trkpt lat="44.33391" lon="4.80876">
        <ele>101.08</ele>
        <time>2018-02-22T14:52:00Z</time>
      </trkpt>
      <trkpt lat="44.33394" lon="4.80876">
        <ele>102.52</ele>
        <time>2018-02-22T14:52:02Z</time>
      </trkpt>
      <trkpt lat="44.33408" lon="4.80873">
        <ele>103</ele>
        <time>2018-02-22T14:52:15Z</time>
      </trkpt>
      <trkpt lat="44.33425" lon="4.80869">
        <ele>103</ele>
        <time>2018-02-22T14:52:28Z</time>
      </trkpt>
      <trkpt lat="44.33437" lon="4.80865">
        <ele>103.48</ele>
        <time>2018-02-22T14:52:39Z</time>
      </trkpt>
      <trkpt lat="44.33444" lon="4.80864">
        <ele>103.48</ele>
        <time>2018-02-22T14:52:46Z</time>
      </trkpt>
      <trkpt lat="44.33458" lon="4.80862">
        <ele>102.04</ele>
        <time>2018-02-22T14:52:57Z</time>
      </trkpt>
      <trkpt lat="44.33472" lon="4.8086">
        <ele>101.08</ele>
        <time>2018-02-22T14:53:12Z</time>
      </trkpt>
      <trkpt lat="44.33475" lon="4.80858">
        <ele>101.08</ele>
        <time>2018-02-22T14:53:15Z</time>
      </trkpt>
      <trkpt lat="44.33485" lon="4.80852">
        <ele>102.04</ele>
        <time>2018-02-22T14:53:22Z</time>
      </trkpt>
      <trkpt lat="44.3349" lon="4.8085">
        <ele>102.04</ele>
        <time>2018-02-22T14:53:30Z</time>
      </trkpt>
      <trkpt lat="44.33497" lon="4.80846">
        <ele>100.6</ele>
        <time>2018-02-22T14:53:36Z</time>
      </trkpt>
      <trkpt lat="44.33499" lon="4.80844">
        <ele>102.04</ele>
        <time>2018-02-22T14:53:39Z</time>
      </trkpt>
      <trkpt lat="44.33502" lon="4.80842">
        <ele>102.04</ele>
        <time>2018-02-22T14:53:42Z</time>
      </trkpt>
      <trkpt lat="44.33508" lon="4.80837">
        <ele>102.04</ele>
        <time>2018-02-22T14:53:49Z</time>
      </trkpt>
      <trkpt lat="44.33517" lon="4.80833">
        <ele>102.52</ele>
        <time>2018-02-22T14:53:57Z</time>
      </trkpt>
      <trkpt lat="44.33521" lon="4.8083">
        <ele>101.56</ele>
        <time>2018-02-22T14:54:00Z</time>
      </trkpt>
      <trkpt lat="44.33532" lon="4.80823">
        <ele>102.04</ele>
        <time>2018-02-22T14:54:13Z</time>
      </trkpt>
      <trkpt lat="44.33544" lon="4.80816">
        <ele>101.08</ele>
        <time>2018-02-22T14:54:25Z</time>
      </trkpt>
      <trkpt lat="44.33548" lon="4.80814">
        <ele>103</ele>
        <time>2018-02-22T14:54:29Z</time>
      </trkpt>
      <trkpt lat="44.33551" lon="4.80812">
        <ele>101.56</ele>
        <time>2018-02-22T14:54:32Z</time>
      </trkpt>
      <trkpt lat="44.3356" lon="4.80806">
        <ele>101.08</ele>
        <time>2018-02-22T14:54:41Z</time>
      </trkpt>
      <trkpt lat="44.33562" lon="4.80805">
        <ele>102.52</ele>
        <time>2018-02-22T14:54:43Z</time>
      </trkpt>
      <trkpt lat="44.33573" lon="4.80794">
        <ele>103</ele>
        <time>2018-02-22T14:54:56Z</time>
      </trkpt>
      <trkpt lat="44.3358" lon="4.80789">
        <ele>101.56</ele>
        <time>2018-02-22T14:55:04Z</time>
      </trkpt>
      <trkpt lat="44.33584" lon="4.80784">
        <ele>103.48</ele>
        <time>2018-02-22T14:55:08Z</time>
      </trkpt>
      <trkpt lat="44.33587" lon="4.80782">
        <ele>103.48</ele>
        <time>2018-02-22T14:55:11Z</time>
      </trkpt>
      <trkpt lat="44.33593" lon="4.80779">
        <ele>102.04</ele>
        <time>2018-02-22T14:55:18Z</time>
      </trkpt>
      <trkpt lat="44.33594" lon="4.80777">
        <ele>103</ele>
        <time>2018-02-22T14:55:20Z</time>
      </trkpt>
      <trkpt lat="44.33594" lon="4.80775">
        <ele>103.96</ele>
        <time>2018-02-22T14:55:22Z</time>
      </trkpt>
      <trkpt lat="44.33591" lon="4.80755">
        <ele>104.92</ele>
        <time>2018-02-22T14:55:37Z</time>
      </trkpt>
      <trkpt lat="44.33581" lon="4.8074">
        <ele>105.88</ele>
        <time>2018-02-22T14:55:51Z</time>
      </trkpt>
      <trkpt lat="44.33582" lon="4.8074">
        <ele>105.88</ele>
        <time>2018-02-22T14:56:04Z</time>
      </trkpt>
      <trkpt lat="44.33587" lon="4.80744">
        <ele>105.88</ele>
        <time>2018-02-22T14:56:11Z</time>
      </trkpt>
      <trkpt lat="44.33598" lon="4.80766">
        <ele>103.96</ele>
        <time>2018-02-22T14:56:29Z</time>
      </trkpt>
      <trkpt lat="44.33601" lon="4.8078">
        <ele>103</ele>
        <time>2018-02-22T14:56:41Z</time>
      </trkpt>
      <trkpt lat="44.33602" lon="4.80781">
        <ele>103</ele>
        <time>2018-02-22T14:56:43Z</time>
      </trkpt>
      <trkpt lat="44.33609" lon="4.80778">
        <ele>103</ele>
        <time>2018-02-22T14:56:50Z</time>
      </trkpt>
      <trkpt lat="44.33627" lon="4.80757">
        <ele>101.08</ele>
        <time>2018-02-22T14:57:11Z</time>
      </trkpt>
      <trkpt lat="44.33631" lon="4.80753">
        <ele>102.04</ele>
        <time>2018-02-22T14:57:15Z</time>
      </trkpt>
      <trkpt lat="44.33643" lon="4.8074">
        <ele>103</ele>
        <time>2018-02-22T14:57:28Z</time>
      </trkpt>
      <trkpt lat="44.33644" lon="4.80738">
        <ele>103.48</ele>
        <time>2018-02-22T14:57:30Z</time>
      </trkpt>
      <trkpt lat="44.33659" lon="4.80721">
        <ele>104.44</ele>
        <time>2018-02-22T14:57:46Z</time>
      </trkpt>
      <trkpt lat="44.33675" lon="4.807">
        <ele>104.44</ele>
        <time>2018-02-22T14:58:04Z</time>
      </trkpt>
      <trkpt lat="44.33687" lon="4.80682">
        <ele>104.44</ele>
        <time>2018-02-22T14:58:18Z</time>
      </trkpt>
      <trkpt lat="44.33697" lon="4.8067">
        <ele>104.44</ele>
        <time>2018-02-22T14:58:33Z</time>
      </trkpt>
      <trkpt lat="44.33702" lon="4.8066">
        <ele>106.36</ele>
        <time>2018-02-22T14:58:40Z</time>
      </trkpt>
      <trkpt lat="44.33705" lon="4.80652">
        <ele>103.96</ele>
        <time>2018-02-22T14:58:45Z</time>
      </trkpt>
      <trkpt lat="44.33717" lon="4.80629">
        <ele>104.44</ele>
        <time>2018-02-22T14:59:04Z</time>
      </trkpt>
      <trkpt lat="44.33732" lon="4.80605">
        <ele>104.44</ele>
        <time>2018-02-22T14:59:23Z</time>
      </trkpt>
      <trkpt lat="44.33742" lon="4.80588">
        <ele>104.44</ele>
        <time>2018-02-22T14:59:37Z</time>
      </trkpt>
      <trkpt lat="44.33751" lon="4.80571">
        <ele>103.48</ele>
        <time>2018-02-22T14:59:51Z</time>
      </trkpt>
      <trkpt lat="44.33764" lon="4.80545">
        <ele>103</ele>
        <time>2018-02-22T15:00:07Z</time>
      </trkpt>
      <trkpt lat="44.33768" lon="4.80537">
        <ele>102.52</ele>
        <time>2018-02-22T15:00:13Z</time>
      </trkpt>
      <trkpt lat="44.3377" lon="4.80532">
        <ele>101.56</ele>
        <time>2018-02-22T15:00:18Z</time>
      </trkpt>
      <trkpt lat="44.33771" lon="4.80526">
        <ele>101.56</ele>
        <time>2018-02-22T15:00:22Z</time>
      </trkpt>
      <trkpt lat="44.33768" lon="4.80515">
        <ele>103.96</ele>
        <time>2018-02-22T15:00:30Z</time>
      </trkpt>
      <trkpt lat="44.33768" lon="4.80515">
        <ele>103.96</ele>
        <time>2018-02-22T15:00:31Z</time>
      </trkpt>
      <trkpt lat="44.3376" lon="4.80504">
        <ele>103.96</ele>
        <time>2018-02-22T15:00:41Z</time>
      </trkpt>
      <trkpt lat="44.33752" lon="4.80495">
        <ele>104.44</ele>
        <time>2018-02-22T15:00:53Z</time>
      </trkpt>
      <trkpt lat="44.3374" lon="4.80483">
        <ele>105.4</ele>
        <time>2018-02-22T15:01:07Z</time>
      </trkpt>
      <trkpt lat="44.33732" lon="4.80475">
        <ele>104.92</ele>
        <time>2018-02-22T15:01:18Z</time>
      </trkpt>
      <trkpt lat="44.33724" lon="4.80467">
        <ele>106.36</ele>
        <time>2018-02-22T15:01:29Z</time>
      </trkpt>
      <trkpt lat="44.33715" lon="4.80449">
        <ele>104.44</ele>
        <time>2018-02-22T15:01:43Z</time>
      </trkpt>
      <trkpt lat="44.33714" lon="4.80447">
        <ele>104.44</ele>
        <time>2018-02-22T15:01:44Z</time>
      </trkpt>
      <trkpt lat="44.33712" lon="4.80441">
        <ele>105.88</ele>
        <time>2018-02-22T15:01:49Z</time>
      </trkpt>
      <trkpt lat="44.33707" lon="4.80434">
        <ele>107.32</ele>
        <time>2018-02-22T15:01:55Z</time>
      </trkpt>
      <trkpt lat="44.33705" lon="4.80423">
        <ele>108.29</ele>
        <time>2018-02-22T15:02:05Z</time>
      </trkpt>
      <trkpt lat="44.33699" lon="4.80418">
        <ele>106.84</ele>
        <time>2018-02-22T15:02:13Z</time>
      </trkpt>
      <trkpt lat="44.33698" lon="4.80416">
        <ele>106.84</ele>
        <time>2018-02-22T15:02:16Z</time>
      </trkpt>
      <trkpt lat="44.33697" lon="4.80413">
        <ele>106.84</ele>
        <time>2018-02-22T15:02:18Z</time>
      </trkpt>
      <trkpt lat="44.33692" lon="4.80403">
        <ele>108.29</ele>
        <time>2018-02-22T15:02:26Z</time>
      </trkpt>
      <trkpt lat="44.33683" lon="4.80392">
        <ele>107.32</ele>
        <time>2018-02-22T15:02:37Z</time>
      </trkpt>
      <trkpt lat="44.33676" lon="4.80383">
        <ele>108.29</ele>
        <time>2018-02-22T15:02:48Z</time>
      </trkpt>
      <trkpt lat="44.33674" lon="4.80381">
        <ele>108.77</ele>
        <time>2018-02-22T15:02:50Z</time>
      </trkpt>
      <trkpt lat="44.33664" lon="4.80372">
        <ele>110.21</ele>
        <time>2018-02-22T15:03:03Z</time>
      </trkpt>
      <trkpt lat="44.33661" lon="4.80368">
        <ele>109.25</ele>
        <time>2018-02-22T15:03:07Z</time>
      </trkpt>
      <trkpt lat="44.3366" lon="4.80368">
        <ele>109.25</ele>
        <time>2018-02-22T15:03:09Z</time>
      </trkpt>
      <trkpt lat="44.33654" lon="4.80361">
        <ele>110.21</ele>
        <time>2018-02-22T15:03:16Z</time>
      </trkpt>
      <trkpt lat="44.33645" lon="4.80355">
        <ele>110.21</ele>
        <time>2018-02-22T15:03:26Z</time>
      </trkpt>
      <trkpt lat="44.33645" lon="4.80354">
        <ele>110.21</ele>
        <time>2018-02-22T15:03:27Z</time>
      </trkpt>
      <trkpt lat="44.33641" lon="4.8035">
        <ele>110.69</ele>
        <time>2018-02-22T15:03:32Z</time>
      </trkpt>
      <trkpt lat="44.33637" lon="4.80348">
        <ele>111.17</ele>
        <time>2018-02-22T15:03:37Z</time>
      </trkpt>
      <trkpt lat="44.3363" lon="4.80344">
        <ele>112.13</ele>
        <time>2018-02-22T15:03:44Z</time>
      </trkpt>
      <trkpt lat="44.33625" lon="4.80341">
        <ele>112.13</ele>
        <time>2018-02-22T15:03:52Z</time>
      </trkpt>
      <trkpt lat="44.33613" lon="4.80333">
        <ele>114.05</ele>
        <time>2018-02-22T15:04:05Z</time>
      </trkpt>
      <trkpt lat="44.33612" lon="4.80333">
        <ele>114.05</ele>
        <time>2018-02-22T15:04:06Z</time>
      </trkpt>
      <trkpt lat="44.33603" lon="4.80331">
        <ele>114.53</ele>
        <time>2018-02-22T15:04:15Z</time>
      </trkpt>
      <trkpt lat="44.33595" lon="4.80327">
        <ele>115.5</ele>
        <time>2018-02-22T15:04:24Z</time>
      </trkpt>
      <trkpt lat="44.33591" lon="4.80325">
        <ele>115.98</ele>
        <time>2018-02-22T15:04:30Z</time>
      </trkpt>
      <trkpt lat="44.33583" lon="4.80323">
        <ele>115.98</ele>
        <time>2018-02-22T15:04:37Z</time>
      </trkpt>
      <trkpt lat="44.33571" lon="4.80315">
        <ele>116.46</ele>
        <time>2018-02-22T15:04:51Z</time>
      </trkpt>
      <trkpt lat="44.33571" lon="4.80315">
        <ele>116.46</ele>
        <time>2018-02-22T15:04:52Z</time>
      </trkpt>
      <trkpt lat="44.33568" lon="4.80313">
        <ele>116.46</ele>
        <time>2018-02-22T15:04:54Z</time>
      </trkpt>
      <trkpt lat="44.33564" lon="4.80309">
        <ele>116.46</ele>
        <time>2018-02-22T15:04:59Z</time>
      </trkpt>
      <trkpt lat="44.33564" lon="4.803">
        <ele>117.42</ele>
        <time>2018-02-22T15:05:05Z</time>
      </trkpt>
      <trkpt lat="44.33573" lon="4.8029">
        <ele>117.9</ele>
        <time>2018-02-22T15:05:16Z</time>
      </trkpt>
      <trkpt lat="44.33572" lon="4.8028">
        <ele>117.9</ele>
        <time>2018-02-22T15:05:25Z</time>
      </trkpt>
      <trkpt lat="44.33571" lon="4.80278">
        <ele>117.9</ele>
        <time>2018-02-22T15:05:27Z</time>
      </trkpt>
      <trkpt lat="44.33573" lon="4.80263">
        <ele>118.38</ele>
        <time>2018-02-22T15:05:38Z</time>
      </trkpt>
      <trkpt lat="44.33572" lon="4.80251">
        <ele>120.3</ele>
        <time>2018-02-22T15:05:48Z</time>
      </trkpt>
      <trkpt lat="44.33566" lon="4.80246">
        <ele>120.78</ele>
        <time>2018-02-22T15:05:58Z</time>
      </trkpt>
      <trkpt lat="44.33558" lon="4.80249">
        <ele>122.22</ele>
        <time>2018-02-22T15:06:08Z</time>
      </trkpt>
      <trkpt lat="44.33557" lon="4.8025">
        <ele>122.22</ele>
        <time>2018-02-22T15:06:11Z</time>
      </trkpt>
      <trkpt lat="44.3355" lon="4.80254">
        <ele>122.22</ele>
        <time>2018-02-22T15:06:20Z</time>
      </trkpt>
      <trkpt lat="44.33542" lon="4.80262">
        <ele>123.19</ele>
        <time>2018-02-22T15:06:31Z</time>
      </trkpt>
      <trkpt lat="44.33541" lon="4.80263">
        <ele>123.19</ele>
        <time>2018-02-22T15:06:32Z</time>
      </trkpt>
      <trkpt lat="44.33533" lon="4.80266">
        <ele>123.67</ele>
        <time>2018-02-22T15:06:42Z</time>
      </trkpt>
      <trkpt lat="44.33523" lon="4.80265">
        <ele>125.11</ele>
        <time>2018-02-22T15:06:53Z</time>
      </trkpt>
      <trkpt lat="44.33513" lon="4.80265">
        <ele>125.59</ele>
        <time>2018-02-22T15:07:06Z</time>
      </trkpt>
      <trkpt lat="44.33507" lon="4.80269">
        <ele>126.55</ele>
        <time>2018-02-22T15:07:17Z</time>
      </trkpt>
      <trkpt lat="44.33506" lon="4.80272">
        <ele>126.55</ele>
        <time>2018-02-22T15:07:20Z</time>
      </trkpt>
      <trkpt lat="44.33501" lon="4.80282">
        <ele>127.03</ele>
        <time>2018-02-22T15:07:32Z</time>
      </trkpt>
      <trkpt lat="44.33498" lon="4.80286">
        <ele>127.99</ele>
        <time>2018-02-22T15:07:36Z</time>
      </trkpt>
      <trkpt lat="44.33488" lon="4.80295">
        <ele>127.99</ele>
        <time>2018-02-22T15:07:50Z</time>
      </trkpt>
      <trkpt lat="44.3348" lon="4.80307">
        <ele>129.43</ele>
        <time>2018-02-22T15:08:02Z</time>
      </trkpt>
      <trkpt lat="44.33478" lon="4.8031">
        <ele>129.43</ele>
        <time>2018-02-22T15:08:05Z</time>
      </trkpt>
      <trkpt lat="44.33458" lon="4.8031">
        <ele>130.88</ele>
        <time>2018-02-22T15:08:23Z</time>
      </trkpt>
      <trkpt lat="44.33454" lon="4.80309">
        <ele>131.36</ele>
        <time>2018-02-22T15:08:37Z</time>
      </trkpt>
      <trkpt lat="44.33458" lon="4.80309">
        <ele>130.4</ele>
        <time>2018-02-22T15:08:44Z</time>
      </trkpt>
      <trkpt lat="44.33468" lon="4.80309">
        <ele>127.99</ele>
        <time>2018-02-22T15:08:59Z</time>
      </trkpt>
      <trkpt lat="44.33472" lon="4.80308">
        <ele>129.92</ele>
        <time>2018-02-22T15:09:02Z</time>
      </trkpt>
      <trkpt lat="44.3348" lon="4.80301">
        <ele>127.03</ele>
        <time>2018-02-22T15:09:11Z</time>
      </trkpt>
      <trkpt lat="44.33481" lon="4.803">
        <ele>127.03</ele>
        <time>2018-02-22T15:09:12Z</time>
      </trkpt>
      <trkpt lat="44.33482" lon="4.80298">
        <ele>129.43</ele>
        <time>2018-02-22T15:09:14Z</time>
      </trkpt>
      <trkpt lat="44.3349" lon="4.80282">
        <ele>127.51</ele>
        <time>2018-02-22T15:09:29Z</time>
      </trkpt>
      <trkpt lat="44.33493" lon="4.80272">
        <ele>128.95</ele>
        <time>2018-02-22T15:09:40Z</time>
      </trkpt>
      <trkpt lat="44.33495" lon="4.80264">
        <ele>128.95</ele>
        <time>2018-02-22T15:09:45Z</time>
      </trkpt>
      <trkpt lat="44.33496" lon="4.80254">
        <ele>129.43</ele>
        <time>2018-02-22T15:09:52Z</time>
      </trkpt>
      <trkpt lat="44.33494" lon="4.80242">
        <ele>129.43</ele>
        <time>2018-02-22T15:10:02Z</time>
      </trkpt>
      <trkpt lat="44.33493" lon="4.80234">
        <ele>130.88</ele>
        <time>2018-02-22T15:10:10Z</time>
      </trkpt>
      <trkpt lat="44.33493" lon="4.8022">
        <ele>131.84</ele>
        <time>2018-02-22T15:10:21Z</time>
      </trkpt>
      <trkpt lat="44.33497" lon="4.80204">
        <ele>133.76</ele>
        <time>2018-02-22T15:10:33Z</time>
      </trkpt>
      <trkpt lat="44.335" lon="4.80196">
        <ele>133.76</ele>
        <time>2018-02-22T15:10:43Z</time>
      </trkpt>
      <trkpt lat="44.33501" lon="4.8019">
        <ele>134.24</ele>
        <time>2018-02-22T15:10:48Z</time>
      </trkpt>
      <trkpt lat="44.33503" lon="4.80181">
        <ele>135.2</ele>
        <time>2018-02-22T15:10:58Z</time>
      </trkpt>
      <trkpt lat="44.33505" lon="4.80174">
        <ele>134.24</ele>
        <time>2018-02-22T15:11:06Z</time>
      </trkpt>
      <trkpt lat="44.33506" lon="4.8017">
        <ele>136.16</ele>
        <time>2018-02-22T15:11:09Z</time>
      </trkpt>
      <trkpt lat="44.33507" lon="4.80169">
        <ele>136.16</ele>
        <time>2018-02-22T15:11:10Z</time>
      </trkpt>
      <trkpt lat="44.33507" lon="4.8016">
        <ele>137.13</ele>
        <time>2018-02-22T15:11:17Z</time>
      </trkpt>
      <trkpt lat="44.33507" lon="4.80149">
        <ele>138.09</ele>
        <time>2018-02-22T15:11:27Z</time>
      </trkpt>
      <trkpt lat="44.33511" lon="4.80133">
        <ele>140.49</ele>
        <time>2018-02-22T15:11:41Z</time>
      </trkpt>
      <trkpt lat="44.33511" lon="4.80132">
        <ele>140.01</ele>
        <time>2018-02-22T15:11:42Z</time>
      </trkpt>
      <trkpt lat="44.33513" lon="4.80129">
        <ele>140.97</ele>
        <time>2018-02-22T15:11:46Z</time>
      </trkpt>
      <trkpt lat="44.33515" lon="4.80119">
        <ele>141.93</ele>
        <time>2018-02-22T15:11:57Z</time>
      </trkpt>
      <trkpt lat="44.33515" lon="4.80118">
        <ele>141.93</ele>
        <time>2018-02-22T15:11:59Z</time>
      </trkpt>
      <trkpt lat="44.33519" lon="4.8011">
        <ele>143.85</ele>
        <time>2018-02-22T15:12:05Z</time>
      </trkpt>
      <trkpt lat="44.33523" lon="4.80104">
        <ele>142.41</ele>
        <time>2018-02-22T15:12:09Z</time>
      </trkpt>
      <trkpt lat="44.33524" lon="4.80102">
        <ele>142.41</ele>
        <time>2018-02-22T15:12:12Z</time>
      </trkpt>
      <trkpt lat="44.33526" lon="4.80091">
        <ele>143.85</ele>
        <time>2018-02-22T15:12:20Z</time>
      </trkpt>
      <trkpt lat="44.33527" lon="4.80077">
        <ele>144.34</ele>
        <time>2018-02-22T15:12:31Z</time>
      </trkpt>
      <trkpt lat="44.3353" lon="4.80061">
        <ele>145.3</ele>
        <time>2018-02-22T15:12:42Z</time>
      </trkpt>
      <trkpt lat="44.3353" lon="4.80057">
        <ele>143.85</ele>
        <time>2018-02-22T15:12:46Z</time>
      </trkpt>
      <trkpt lat="44.3353" lon="4.80053">
        <ele>145.78</ele>
        <time>2018-02-22T15:12:49Z</time>
      </trkpt>
      <trkpt lat="44.3353" lon="4.80049">
        <ele>145.78</ele>
        <time>2018-02-22T15:12:52Z</time>
      </trkpt>
      <trkpt lat="44.33526" lon="4.80037">
        <ele>146.26</ele>
        <time>2018-02-22T15:13:03Z</time>
      </trkpt>
      <trkpt lat="44.33525" lon="4.80034">
        <ele>146.26</ele>
        <time>2018-02-22T15:13:06Z</time>
      </trkpt>
      <trkpt lat="44.33523" lon="4.80031">
        <ele>144.34</ele>
        <time>2018-02-22T15:13:08Z</time>
      </trkpt>
      <trkpt lat="44.33522" lon="4.8003">
        <ele>147.7</ele>
        <time>2018-02-22T15:13:10Z</time>
      </trkpt>
      <trkpt lat="44.33516" lon="4.80025">
        <ele>146.26</ele>
        <time>2018-02-22T15:13:17Z</time>
      </trkpt>
      <trkpt lat="44.33513" lon="4.80013">
        <ele>147.7</ele>
        <time>2018-02-22T15:13:29Z</time>
      </trkpt>
      <trkpt lat="44.33511" lon="4.80011">
        <ele>148.66</ele>
        <time>2018-02-22T15:13:33Z</time>
      </trkpt>
      <trkpt lat="44.33504" lon="4.79999">
        <ele>147.7</ele>
        <time>2018-02-22T15:13:43Z</time>
      </trkpt>
      <trkpt lat="44.33499" lon="4.79994">
        <ele>149.62</ele>
        <time>2018-02-22T15:13:48Z</time>
      </trkpt>
      <trkpt lat="44.33499" lon="4.79992">
        <ele>148.18</ele>
        <time>2018-02-22T15:13:50Z</time>
      </trkpt>
      <trkpt lat="44.33493" lon="4.79987">
        <ele>149.14</ele>
        <time>2018-02-22T15:13:58Z</time>
      </trkpt>
      <trkpt lat="44.3348" lon="4.79976">
        <ele>151.54</ele>
        <time>2018-02-22T15:14:11Z</time>
      </trkpt>
      <trkpt lat="44.33472" lon="4.79968">
        <ele>152.99</ele>
        <time>2018-02-22T15:14:24Z</time>
      </trkpt>
      <trkpt lat="44.33463" lon="4.79962">
        <ele>153.95</ele>
        <time>2018-02-22T15:14:35Z</time>
      </trkpt>
      <trkpt lat="44.33461" lon="4.79961">
        <ele>153.95</ele>
        <time>2018-02-22T15:14:37Z</time>
      </trkpt>
      <trkpt lat="44.33457" lon="4.79958">
        <ele>154.43</ele>
        <time>2018-02-22T15:14:41Z</time>
      </trkpt>
      <trkpt lat="44.33447" lon="4.79948">
        <ele>155.87</ele>
        <time>2018-02-22T15:14:53Z</time>
      </trkpt>
      <trkpt lat="44.33444" lon="4.79945">
        <ele>155.87</ele>
        <time>2018-02-22T15:14:58Z</time>
      </trkpt>
      <trkpt lat="44.33439" lon="4.79936">
        <ele>156.83</ele>
        <time>2018-02-22T15:15:09Z</time>
      </trkpt>
      <trkpt lat="44.3343" lon="4.79923">
        <ele>158.75</ele>
        <time>2018-02-22T15:15:24Z</time>
      </trkpt>
      <trkpt lat="44.33423" lon="4.79911">
        <ele>160.68</ele>
        <time>2018-02-22T15:15:38Z</time>
      </trkpt>
      <trkpt lat="44.33415" lon="4.79898">
        <ele>161.64</ele>
        <time>2018-02-22T15:15:52Z</time>
      </trkpt>
      <trkpt lat="44.33415" lon="4.79897">
        <ele>161.64</ele>
        <time>2018-02-22T15:15:54Z</time>
      </trkpt>
      <trkpt lat="44.33407" lon="4.79886">
        <ele>163.56</ele>
        <time>2018-02-22T15:16:07Z</time>
      </trkpt>
      <trkpt lat="44.33395" lon="4.79877">
        <ele>164.52</ele>
        <time>2018-02-22T15:16:17Z</time>
      </trkpt>
      <trkpt lat="44.3339" lon="4.79873">
        <ele>164.52</ele>
        <time>2018-02-22T15:16:22Z</time>
      </trkpt>
      <trkpt lat="44.33387" lon="4.79869">
        <ele>165.48</ele>
        <time>2018-02-22T15:16:27Z</time>
      </trkpt>
      <trkpt lat="44.33381" lon="4.79854">
        <ele>165.96</ele>
        <time>2018-02-22T15:16:39Z</time>
      </trkpt>
      <trkpt lat="44.33378" lon="4.7985">
        <ele>166.45</ele>
        <time>2018-02-22T15:16:43Z</time>
      </trkpt>
      <trkpt lat="44.33374" lon="4.79847">
        <ele>166.45</ele>
        <time>2018-02-22T15:16:48Z</time>
      </trkpt>
      <trkpt lat="44.33359" lon="4.79838">
        <ele>167.41</ele>
        <time>2018-02-22T15:17:00Z</time>
      </trkpt>
      <trkpt lat="44.33351" lon="4.79833">
        <ele>168.37</ele>
        <time>2018-02-22T15:17:08Z</time>
      </trkpt>
      <trkpt lat="44.33342" lon="4.79822">
        <ele>168.85</ele>
        <time>2018-02-22T15:17:18Z</time>
      </trkpt>
      <trkpt lat="44.33333" lon="4.79812">
        <ele>169.81</ele>
        <time>2018-02-22T15:17:30Z</time>
      </trkpt>
      <trkpt lat="44.33327" lon="4.79805">
        <ele>170.29</ele>
        <time>2018-02-22T15:17:37Z</time>
      </trkpt>
      <trkpt lat="44.33324" lon="4.79796">
        <ele>171.25</ele>
        <time>2018-02-22T15:17:44Z</time>
      </trkpt>
      <trkpt lat="44.33322" lon="4.79794">
        <ele>171.25</ele>
        <time>2018-02-22T15:17:46Z</time>
      </trkpt>
      <trkpt lat="44.33313" lon="4.79779">
        <ele>171.73</ele>
        <time>2018-02-22T15:17:58Z</time>
      </trkpt>
      <trkpt lat="44.33311" lon="4.79776">
        <ele>171.73</ele>
        <time>2018-02-22T15:18:02Z</time>
      </trkpt>
      <trkpt lat="44.33303" lon="4.79766">
        <ele>171.25</ele>
        <time>2018-02-22T15:18:13Z</time>
      </trkpt>
      <trkpt lat="44.33298" lon="4.79755">
        <ele>172.69</ele>
        <time>2018-02-22T15:18:23Z</time>
      </trkpt>
      <trkpt lat="44.33283" lon="4.79736">
        <ele>172.69</ele>
        <time>2018-02-22T15:18:41Z</time>
      </trkpt>
      <trkpt lat="44.33274" lon="4.79725">
        <ele>173.17</ele>
        <time>2018-02-22T15:18:51Z</time>
      </trkpt>
      <trkpt lat="44.33262" lon="4.79712">
        <ele>173.17</ele>
        <time>2018-02-22T15:19:05Z</time>
      </trkpt>
      <trkpt lat="44.33255" lon="4.79693">
        <ele>173.17</ele>
        <time>2018-02-22T15:19:18Z</time>
      </trkpt>
      <trkpt lat="44.33251" lon="4.79681">
        <ele>174.14</ele>
        <time>2018-02-22T15:19:30Z</time>
      </trkpt>
      <trkpt lat="44.33245" lon="4.79659">
        <ele>172.21</ele>
        <time>2018-02-22T15:19:41Z</time>
      </trkpt>
      <trkpt lat="44.33243" lon="4.79655">
        <ele>174.14</ele>
        <time>2018-02-22T15:19:44Z</time>
      </trkpt>
      <trkpt lat="44.33241" lon="4.79648">
        <ele>173.17</ele>
        <time>2018-02-22T15:19:51Z</time>
      </trkpt>
      <trkpt lat="44.33237" lon="4.79637">
        <ele>173.17</ele>
        <time>2018-02-22T15:20:00Z</time>
      </trkpt>
      <trkpt lat="44.33231" lon="4.79619">
        <ele>173.17</ele>
        <time>2018-02-22T15:20:13Z</time>
      </trkpt>
      <trkpt lat="44.33217" lon="4.79599">
        <ele>173.17</ele>
        <time>2018-02-22T15:20:27Z</time>
      </trkpt>
      <trkpt lat="44.33208" lon="4.79588">
        <ele>173.17</ele>
        <time>2018-02-22T15:20:41Z</time>
      </trkpt>
      <trkpt lat="44.33201" lon="4.79579">
        <ele>174.62</ele>
        <time>2018-02-22T15:20:47Z</time>
      </trkpt>
      <trkpt lat="44.33195" lon="4.79569">
        <ele>173.17</ele>
        <time>2018-02-22T15:20:58Z</time>
      </trkpt>
      <trkpt lat="44.33183" lon="4.79557">
        <ele>173.17</ele>
        <time>2018-02-22T15:21:10Z</time>
      </trkpt>
      <trkpt lat="44.33174" lon="4.79545">
        <ele>173.17</ele>
        <time>2018-02-22T15:21:22Z</time>
      </trkpt>
      <trkpt lat="44.33165" lon="4.79534">
        <ele>173.17</ele>
        <time>2018-02-22T15:21:35Z</time>
      </trkpt>
      <trkpt lat="44.33158" lon="4.79526">
        <ele>173.17</ele>
        <time>2018-02-22T15:21:40Z</time>
      </trkpt>
      <trkpt lat="44.33157" lon="4.79524">
        <ele>173.17</ele>
        <time>2018-02-22T15:21:41Z</time>
      </trkpt>
      <trkpt lat="44.33156" lon="4.79521">
        <ele>173.17</ele>
        <time>2018-02-22T15:21:42Z</time>
      </trkpt>
      <trkpt lat="44.33155" lon="4.79519">
        <ele>173.17</ele>
        <time>2018-02-22T15:21:43Z</time>
      </trkpt>
      <trkpt lat="44.33152" lon="4.79507">
        <ele>174.62</ele>
        <time>2018-02-22T15:21:54Z</time>
      </trkpt>
      <trkpt lat="44.33144" lon="4.79489">
        <ele>175.1</ele>
        <time>2018-02-22T15:22:10Z</time>
      </trkpt>
      <trkpt lat="44.33137" lon="4.79478">
        <ele>175.58</ele>
        <time>2018-02-22T15:22:19Z</time>
      </trkpt>
      <trkpt lat="44.33136" lon="4.79477">
        <ele>175.58</ele>
        <time>2018-02-22T15:22:20Z</time>
      </trkpt>
      <trkpt lat="44.33135" lon="4.79475">
        <ele>175.58</ele>
        <time>2018-02-22T15:22:21Z</time>
      </trkpt>
      <trkpt lat="44.33134" lon="4.79475">
        <ele>175.58</ele>
        <time>2018-02-22T15:22:22Z</time>
      </trkpt>
      <trkpt lat="44.33132" lon="4.79474">
        <ele>175.58</ele>
        <time>2018-02-22T15:22:23Z</time>
      </trkpt>
      <trkpt lat="44.33131" lon="4.79473">
        <ele>175.58</ele>
        <time>2018-02-22T15:22:24Z</time>
      </trkpt>
      <trkpt lat="44.33115" lon="4.79461">
        <ele>175.58</ele>
        <time>2018-02-22T15:22:38Z</time>
      </trkpt>
      <trkpt lat="44.33103" lon="4.79451">
        <ele>176.06</ele>
        <time>2018-02-22T15:22:53Z</time>
      </trkpt>
      <trkpt lat="44.33091" lon="4.79437">
        <ele>176.06</ele>
        <time>2018-02-22T15:23:08Z</time>
      </trkpt>
      <trkpt lat="44.33077" lon="4.79423">
        <ele>177.5</ele>
        <time>2018-02-22T15:23:21Z</time>
      </trkpt>
      <trkpt lat="44.33068" lon="4.79417">
        <ele>178.46</ele>
        <time>2018-02-22T15:23:31Z</time>
      </trkpt>
      <trkpt lat="44.33067" lon="4.79416">
        <ele>178.46</ele>
        <time>2018-02-22T15:23:32Z</time>
      </trkpt>
      <trkpt lat="44.33051" lon="4.79402">
        <ele>178.46</ele>
        <time>2018-02-22T15:23:47Z</time>
      </trkpt>
      <trkpt lat="44.33044" lon="4.7939">
        <ele>178.46</ele>
        <time>2018-02-22T15:23:58Z</time>
      </trkpt>
      <trkpt lat="44.33037" lon="4.79372">
        <ele>179.42</ele>
        <time>2018-02-22T15:24:10Z</time>
      </trkpt>
      <trkpt lat="44.33029" lon="4.79354">
        <ele>178.94</ele>
        <time>2018-02-22T15:24:23Z</time>
      </trkpt>
      <trkpt lat="44.33028" lon="4.79351">
        <ele>177.98</ele>
        <time>2018-02-22T15:24:26Z</time>
      </trkpt>
      <trkpt lat="44.33027" lon="4.79349">
        <ele>177.98</ele>
        <time>2018-02-22T15:24:27Z</time>
      </trkpt>
      <trkpt lat="44.3302" lon="4.79328">
        <ele>177.98</ele>
        <time>2018-02-22T15:24:40Z</time>
      </trkpt>
      <trkpt lat="44.33017" lon="4.7931">
        <ele>179.42</ele>
        <time>2018-02-22T15:24:49Z</time>
      </trkpt>
      <trkpt lat="44.33017" lon="4.79306">
        <ele>176.54</ele>
        <time>2018-02-22T15:24:51Z</time>
      </trkpt>
      <trkpt lat="44.33018" lon="4.79304">
        <ele>177.98</ele>
        <time>2018-02-22T15:24:52Z</time>
      </trkpt>
      <trkpt lat="44.33018" lon="4.79303">
        <ele>178.46</ele>
        <time>2018-02-22T15:24:53Z</time>
      </trkpt>
      <trkpt lat="44.33018" lon="4.79301">
        <ele>178.46</ele>
        <time>2018-02-22T15:24:54Z</time>
      </trkpt>
      <trkpt lat="44.33018" lon="4.79299">
        <ele>178.46</ele>
        <time>2018-02-22T15:24:55Z</time>
      </trkpt>
      <trkpt lat="44.33018" lon="4.79298">
        <ele>178.46</ele>
        <time>2018-02-22T15:24:56Z</time>
      </trkpt>
      <trkpt lat="44.33018" lon="4.79296">
        <ele>178.46</ele>
        <time>2018-02-22T15:24:57Z</time>
      </trkpt>
      <trkpt lat="44.33018" lon="4.79295">
        <ele>178.46</ele>
        <time>2018-02-22T15:24:58Z</time>
      </trkpt>
      <trkpt lat="44.33018" lon="4.79286">
        <ele>177.02</ele>
        <time>2018-02-22T15:25:06Z</time>
      </trkpt>
      <trkpt lat="44.33017" lon="4.79285">
        <ele>179.9</ele>
        <time>2018-02-22T15:25:08Z</time>
      </trkpt>
      <trkpt lat="44.33018" lon="4.79282">
        <ele>180.38</ele>
        <time>2018-02-22T15:25:12Z</time>
      </trkpt>
      <trkpt lat="44.33019" lon="4.79281">
        <ele>178.46</ele>
        <time>2018-02-22T15:25:14Z</time>
      </trkpt>
      <trkpt lat="44.3302" lon="4.79271">
        <ele>177.5</ele>
        <time>2018-02-22T15:25:25Z</time>
      </trkpt>
      <trkpt lat="44.33021" lon="4.79268">
        <ele>177.5</ele>
        <time>2018-02-22T15:25:27Z</time>
      </trkpt>
      <trkpt lat="44.33027" lon="4.79247">
        <ele>176.54</ele>
        <time>2018-02-22T15:25:42Z</time>
      </trkpt>
      <trkpt lat="44.33034" lon="4.79222">
        <ele>175.58</ele>
        <time>2018-02-22T15:25:56Z</time>
      </trkpt>
      <trkpt lat="44.33036" lon="4.79205">
        <ele>175.58</ele>
        <time>2018-02-22T15:26:06Z</time>
      </trkpt>
      <trkpt lat="44.3304" lon="4.79184">
        <ele>174.14</ele>
        <time>2018-02-22T15:26:19Z</time>
      </trkpt>
      <trkpt lat="44.33042" lon="4.79177">
        <ele>173.66</ele>
        <time>2018-02-22T15:26:25Z</time>
      </trkpt>
      <trkpt lat="44.33043" lon="4.79175">
        <ele>173.66</ele>
        <time>2018-02-22T15:26:26Z</time>
      </trkpt>
      <trkpt lat="44.33042" lon="4.79166">
        <ele>171.73</ele>
        <time>2018-02-22T15:26:37Z</time>
      </trkpt>
      <trkpt lat="44.33042" lon="4.79158">
        <ele>170.77</ele>
        <time>2018-02-22T15:26:44Z</time>
      </trkpt>
      <trkpt lat="44.33041" lon="4.79136">
        <ele>169.33</ele>
        <time>2018-02-22T15:26:56Z</time>
      </trkpt>
      <trkpt lat="44.33042" lon="4.7911">
        <ele>167.41</ele>
        <time>2018-02-22T15:27:10Z</time>
      </trkpt>
      <trkpt lat="44.33042" lon="4.79095">
        <ele>165.96</ele>
        <time>2018-02-22T15:27:24Z</time>
      </trkpt>
      <trkpt lat="44.33043" lon="4.79093">
        <ele>165.96</ele>
        <time>2018-02-22T15:27:26Z</time>
      </trkpt>
      <trkpt lat="44.33044" lon="4.79092">
        <ele>165.96</ele>
        <time>2018-02-22T15:27:27Z</time>
      </trkpt>
      <trkpt lat="44.33046" lon="4.79091">
        <ele>165.96</ele>
        <time>2018-02-22T15:27:28Z</time>
      </trkpt>
      <trkpt lat="44.33052" lon="4.7909">
        <ele>165.48</ele>
        <time>2018-02-22T15:27:37Z</time>
      </trkpt>
      <trkpt lat="44.33054" lon="4.7909">
        <ele>164.52</ele>
        <time>2018-02-22T15:27:42Z</time>
      </trkpt>
      <trkpt lat="44.33055" lon="4.79087">
        <ele>164.52</ele>
        <time>2018-02-22T15:27:43Z</time>
      </trkpt>
      <trkpt lat="44.33056" lon="4.79085">
        <ele>164.52</ele>
        <time>2018-02-22T15:27:44Z</time>
      </trkpt>
      <trkpt lat="44.33056" lon="4.79083">
        <ele>164.52</ele>
        <time>2018-02-22T15:27:45Z</time>
      </trkpt>
      <trkpt lat="44.33055" lon="4.79081">
        <ele>165.96</ele>
        <time>2018-02-22T15:27:46Z</time>
      </trkpt>
      <trkpt lat="44.33055" lon="4.7908">
        <ele>166.45</ele>
        <time>2018-02-22T15:27:47Z</time>
      </trkpt>
      <trkpt lat="44.33055" lon="4.79076">
        <ele>166.45</ele>
        <time>2018-02-22T15:27:58Z</time>
      </trkpt>
      <trkpt lat="44.33056" lon="4.79076">
        <ele>163.56</ele>
        <time>2018-02-22T15:28:05Z</time>
      </trkpt>
      <trkpt lat="44.33059" lon="4.79076">
        <ele>165.48</ele>
        <time>2018-02-22T15:28:09Z</time>
      </trkpt>
      <trkpt lat="44.33063" lon="4.79078">
        <ele>162.12</ele>
        <time>2018-02-22T15:28:19Z</time>
      </trkpt>
      <trkpt lat="44.33067" lon="4.79086">
        <ele>161.64</ele>
        <time>2018-02-22T15:28:27Z</time>
      </trkpt>
      <trkpt lat="44.33068" lon="4.79087">
        <ele>161.64</ele>
        <time>2018-02-22T15:28:28Z</time>
      </trkpt>
      <trkpt lat="44.33069" lon="4.79088">
        <ele>161.64</ele>
        <time>2018-02-22T15:28:29Z</time>
      </trkpt>
      <trkpt lat="44.33076" lon="4.79092">
        <ele>158.27</ele>
        <time>2018-02-22T15:28:39Z</time>
      </trkpt>
      <trkpt lat="44.33081" lon="4.79093">
        <ele>155.39</ele>
        <time>2018-02-22T15:28:47Z</time>
      </trkpt>
      <trkpt lat="44.33081" lon="4.79094">
        <ele>154.43</ele>
        <time>2018-02-22T15:28:49Z</time>
      </trkpt>
      <trkpt lat="44.33084" lon="4.79093">
        <ele>153.95</ele>
        <time>2018-02-22T15:28:52Z</time>
      </trkpt>
      <trkpt lat="44.33086" lon="4.79093">
        <ele>153.95</ele>
        <time>2018-02-22T15:28:53Z</time>
      </trkpt>
      <trkpt lat="44.33088" lon="4.79092">
        <ele>153.95</ele>
        <time>2018-02-22T15:28:55Z</time>
      </trkpt>
      <trkpt lat="44.33094" lon="4.79092">
        <ele>154.43</ele>
        <time>2018-02-22T15:28:59Z</time>
      </trkpt>
      <trkpt lat="44.33105" lon="4.79097">
        <ele>156.83</ele>
        <time>2018-02-22T15:29:12Z</time>
      </trkpt>
      <trkpt lat="44.33115" lon="4.79099">
        <ele>154.91</ele>
        <time>2018-02-22T15:29:19Z</time>
      </trkpt>
      <trkpt lat="44.3312" lon="4.79097">
        <ele>157.31</ele>
        <time>2018-02-22T15:29:29Z</time>
      </trkpt>
      <trkpt lat="44.33121" lon="4.79098">
        <ele>155.39</ele>
        <time>2018-02-22T15:29:37Z</time>
      </trkpt>
      <trkpt lat="44.33123" lon="4.791">
        <ele>156.83</ele>
        <time>2018-02-22T15:29:39Z</time>
      </trkpt>
      <trkpt lat="44.33124" lon="4.79103">
        <ele>155.39</ele>
        <time>2018-02-22T15:29:44Z</time>
      </trkpt>
      <trkpt lat="44.33126" lon="4.79109">
        <ele>156.83</ele>
        <time>2018-02-22T15:29:52Z</time>
      </trkpt>
      <trkpt lat="44.33126" lon="4.79109">
        <ele>155.39</ele>
        <time>2018-02-22T15:29:58Z</time>
      </trkpt>
      <trkpt lat="44.3313" lon="4.79108">
        <ele>156.35</ele>
        <time>2018-02-22T15:30:25Z</time>
      </trkpt>
      <trkpt lat="44.33129" lon="4.7911">
        <ele>157.31</ele>
        <time>2018-02-22T15:30:37Z</time>
      </trkpt>
      <trkpt lat="44.33129" lon="4.79109">
        <ele>157.79</ele>
        <time>2018-02-22T15:30:48Z</time>
      </trkpt>
      <trkpt lat="44.3313" lon="4.79107">
        <ele>157.79</ele>
        <time>2018-02-22T15:31:14Z</time>
      </trkpt>
    </trkseg>
  </trk>
</gpx>